Observation data for Crane on 06/15/2019      Previous  Date  Next       Current Mesonet Observations  Soil Data  Daily Summary Page  Observations in Plain Language
KCR2 150500Z 15010KT 28/16 A2986 RMK A01 T02780164  RH  050%=      5-min Rain = 0
KCR2 150501Z 15008KT 28/16 A2986 RMK A01 T02780163  RH  050%=      5-min Rain = 0
KCR2 150502Z 16006KT 28/16 A2986 RMK A01 T02780163  RH  050%=      5-min Rain = 0
KCR2 150503Z 17005KT 28/16 A2987 RMK A01 T02780162  RH  049%=      5-min Rain = 0
KCR2 150504Z 21002KT 28/16 A2987 RMK A01 T02780162  RH  049%=      5-min Rain = 0
KCR2 150505Z 31003KT 28/16 A2988 RMK A01 T02780163  RH  050%=      5-min Rain = 0
KCR2 150506Z 32005KT 28/16 A2988 RMK A01 T02760164  RH  051%=      5-min Rain = 0
KCR2 150507Z 31004KT 27/17 A2988 RMK A01 T02730165  RH  052%=      5-min Rain = 0
KCR2 150508Z 31001KT 27/17 A2988 RMK A01 T02700166  RH  053%=      5-min Rain = 0
KCR2 150509Z 29000KT 27/17 A2988 RMK A01 T02690166  RH  053%=      5-min Rain = 0
KCR2 150510Z 13002KT 27/17 A2988 RMK A01 T02680165  RH  053%=      5-min Rain = 0
KCR2 150511Z 13005KT 27/16 A2988 RMK A01 T02680162  RH  052%=      5-min Rain = 0
KCR2 150512Z 15006KT 27/16 A2988 RMK A01 T02700160  RH  051%=      5-min Rain = 0
KCR2 150513Z 15007KT 27/16 A2988 RMK A01 T02720162  RH  051%=      5-min Rain = 0
KCR2 150514Z 16007KT 27/16 A2988 RMK A01 T02720160  RH  050%=      5-min Rain = 0
KCR2 150515Z 16007KT 27/16 A2988 RMK A01 T02730161  RH  050%=      5-min Rain = 0
KCR2 150516Z 16009KT 27/16 A2988 RMK A01 T02730159  RH  050%=      5-min Rain = 0
KCR2 150517Z 17007KT 27/16 A2988 RMK A01 T02740159  RH  049%=      5-min Rain = 0
KCR2 150518Z 17009KT 28/16 A2988 RMK A01 T02750159  RH  049%=      5-min Rain = 0
KCR2 150519Z 17010KT 28/16 A2988 RMK A01 T02750159  RH  049%=      5-min Rain = 0
KCR2 150520Z 16010KT 28/16 A2988 RMK A01 T02750158  RH  049%=      5-min Rain = 0
KCR2 150521Z 17008KT 28/16 A2987 RMK A01 T02760158  RH  048%=      5-min Rain = 0
KCR2 150522Z 17009KT 28/16 A2987 RMK A01 T02760158  RH  048%=      5-min Rain = 0
KCR2 150523Z 17009KT 28/16 A2987 RMK A01 T02760159  RH  049%=      5-min Rain = 0
KCR2 150524Z 17009KT 28/16 A2987 RMK A01 T02750158  RH  049%=      5-min Rain = 0
KCR2 150525Z 17008KT 28/16 A2987 RMK A01 T02750158  RH  049%=      5-min Rain = 0
KCR2 150526Z 17011KT 28/16 A2987 RMK A01 T02750158  RH  049%=      5-min Rain = 0
KCR2 150527Z 18011KT 28/16 A2987 RMK A01 T02750157  RH  049%=      5-min Rain = 0
KCR2 150528Z 17010KT 28/16 A2987 RMK A01 T02750157  RH  049%=      5-min Rain = 0
KCR2 150529Z 17009KT 28/16 A2987 RMK A01 T02750157  RH  049%=      5-min Rain = 0
KCR2 150530Z 17010KT 27/16 A2987 RMK A01 T02740156  RH  049%=      5-min Rain = 0
KCR2 150531Z 17010KT 27/16 A2987 RMK A01 T02730156  RH  049%=      5-min Rain = 0
KCR2 150532Z 17010KT 27/16 A2987 RMK A01 T02730156  RH  049%=      5-min Rain = 0
KCR2 150533Z 17009KT 27/16 A2987 RMK A01 T02730156  RH  049%=      5-min Rain = 0
KCR2 150534Z 17009KT 27/16 A2987 RMK A01 T02730156  RH  049%=      5-min Rain = 0
KCR2 150535Z 17008KT 27/16 A2987 RMK A01 T02730156  RH  049%=      5-min Rain = 0
KCR2 150536Z 17009KT 27/16 A2987 RMK A01 T02730155  RH  049%=      5-min Rain = 0
KCR2 150537Z 16008KT 27/16 A2987 RMK A01 T02730155  RH  049%=      5-min Rain = 0
KCR2 150538Z 16008KT 27/16 A2987 RMK A01 T02720155  RH  049%=      5-min Rain = 0
KCR2 150539Z 16007KT 27/15 A2987 RMK A01 T02720154  RH  049%=      5-min Rain = 0
KCR2 150540Z 15007KT 27/15 A2987 RMK A01 T02710154  RH  049%=      5-min Rain = 0
KCR2 150541Z 15007KT 27/15 A2987 RMK A01 T02710154  RH  049%=      5-min Rain = 0
KCR2 150542Z 15007KT 27/15 A2987 RMK A01 T02690153  RH  049%=      5-min Rain = 0
KCR2 150543Z 15006KT 27/15 A2987 RMK A01 T02690153  RH  049%=      5-min Rain = 0
KCR2 150544Z 15006KT 27/15 A2987 RMK A01 T02680153  RH  049%=      5-min Rain = 0
KCR2 150545Z 15006KT 27/15 A2987 RMK A01 T02680153  RH  049%=      5-min Rain = 0
KCR2 150546Z 15005KT 27/15 A2987 RMK A01 T02660153  RH  050%=      5-min Rain = 0
KCR2 150547Z 16006KT 27/15 A2987 RMK A01 T02660153  RH  050%=      5-min Rain = 0
KCR2 150548Z 16006KT 27/15 A2987 RMK A01 T02650153  RH  050%=      5-min Rain = 0
KCR2 150549Z 16005KT 27/15 A2987 RMK A01 T02650152  RH  050%=      5-min Rain = 0
KCR2 150550Z 15004KT 27/15 A2987 RMK A01 T02650152  RH  050%=      5-min Rain = 0
KCR2 150551Z 15004KT 27/15 A2987 RMK A01 T02650152  RH  050%=      5-min Rain = 0
KCR2 150552Z 15003KT 27/15 A2987 RMK A01 T02650152  RH  050%=      5-min Rain = 0
KCR2 150553Z 14003KT 26/15 A2987 RMK A01 T02640151  RH  050%=      5-min Rain = 0
KCR2 150554Z 14004KT 26/15 A2987 RMK A01 T02630151  RH  050%=      5-min Rain = 0
KCR2 150555Z 14005KT 26/15 A2987 RMK A01 T02620150  RH  050%=      5-min Rain = 0
KCR2 150556Z 13004KT 26/15 A2987 RMK A01 T02620149  RH  050%=      5-min Rain = 0
KCR2 150557Z 13005KT 26/15 A2986 RMK A01 T02620149  RH  050%=      5-min Rain = 0
KCR2 150558Z 12004KT 26/15 A2986 RMK A01 T02610147  RH  050%=      5-min Rain = 0
KCR2 150559Z 13004KT 26/15 A2986 RMK A01 T02620147  RH  049%=      5-min Rain = 0
KCR2 150600Z 12005KT 26/15 A2986 RMK A01 T02620147  RH  049%=      5-min Rain = 0
KCR2 150601Z 12007KT 26/14 A2986 RMK A01 T02610144  RH  048%=      5-min Rain = 0
KCR2 150602Z 13005KT 26/14 A2986 RMK A01 T02630142  RH  048%=      5-min Rain = 0
KCR2 150603Z 13006KT 26/14 A2986 RMK A01 T02640143  RH  047%=      5-min Rain = 0
KCR2 150604Z 14007KT 27/14 A2986 RMK A01 T02650142  RH  047%=      5-min Rain = 0
KCR2 150605Z 15007KT 27/14 A2986 RMK A01 T02660142  RH  046%=      5-min Rain = 0
KCR2 150606Z 15007KT 27/14 A2986 RMK A01 T02670142  RH  046%=      5-min Rain = 0
KCR2 150607Z 17009KT 27/14 A2986 RMK A01 T02670141  RH  046%=      5-min Rain = 0
KCR2 150608Z 16010KT 27/14 A2986 RMK A01 T02670138  RH  045%=      5-min Rain = 0
KCR2 150609Z 16011KT 27/14 A2986 RMK A01 T02690138  RH  044%=      5-min Rain = 0
KCR2 150610Z 17012KT 27/14 A2986 RMK A01 T02710138  RH  044%=      5-min Rain = 0
KCR2 150611Z 17012KT 27/14 A2986 RMK A01 T02730138  RH  043%=      5-min Rain = 0
KCR2 150612Z 17012KT 27/14 A2985 RMK A01 T02740138  RH  043%=      5-min Rain = 0
KCR2 150613Z 16011KT 27/14 A2985 RMK A01 T02740138  RH  043%=      5-min Rain = 0
KCR2 150614Z 16013KT 28/14 A2985 RMK A01 T02750138  RH  043%=      5-min Rain = 0
KCR2 150615Z 17013KT 28/14 A2985 RMK A01 T02760138  RH  043%=      5-min Rain = 0
KCR2 150616Z 16010KT 28/14 A2985 RMK A01 T02770138  RH  042%=      5-min Rain = 0
KCR2 150617Z 16011KT 28/14 A2985 RMK A01 T02760138  RH  043%=      5-min Rain = 0
KCR2 150618Z 16010KT 28/14 A2985 RMK A01 T02760138  RH  043%=      5-min Rain = 0
KCR2 150619Z 17010KT 28/14 A2985 RMK A01 T02750138  RH  043%=      5-min Rain = 0
KCR2 150620Z 16009KT 28/14 A2985 RMK A01 T02750138  RH  043%=      5-min Rain = 0
KCR2 150621Z 16010KT 28/14 A2985 RMK A01 T02750137  RH  043%=      5-min Rain = 0
KCR2 150622Z 16009KT 28/14 A2985 RMK A01 T02750138  RH  043%=      5-min Rain = 0
KCR2 150623Z 16009KT 27/14 A2985 RMK A01 T02740137  RH  043%=      5-min Rain = 0
KCR2 150624Z 16011KT 27/14 A2985 RMK A01 T02730137  RH  043%=      5-min Rain = 0
KCR2 150625Z 16012KT 27/14 A2985 RMK A01 T02730137  RH  043%=      5-min Rain = 0
KCR2 150626Z 17010KT 27/14 A2985 RMK A01 T02730137  RH  043%=      5-min Rain = 0
KCR2 150627Z 17012KT 27/14 A2985 RMK A01 T02730137  RH  043%=      5-min Rain = 0
KCR2 150628Z 17012KT 27/14 A2985 RMK A01 T02740136  RH  043%=      5-min Rain = 0
KCR2 150629Z 17011KT 27/14 A2985 RMK A01 T02740137  RH  043%=      5-min Rain = 0
KCR2 150630Z 17011KT 27/14 A2985 RMK A01 T02740136  RH  043%=      5-min Rain = 0
KCR2 150631Z 17009KT 27/14 A2986 RMK A01 T02740136  RH  043%=      5-min Rain = 0
KCR2 150632Z 17011KT 27/14 A2986 RMK A01 T02730136  RH  043%=      5-min Rain = 0
KCR2 150633Z 16011KT 27/14 A2985 RMK A01 T02730136  RH  043%=      5-min Rain = 0
KCR2 150634Z 17011KT 27/14 A2985 RMK A01 T02730136  RH  043%=      5-min Rain = 0
KCR2 150635Z 17009KT 27/14 A2985 RMK A01 T02730135  RH  043%=      5-min Rain = 0
KCR2 150636Z 16011KT 27/14 A2985 RMK A01 T02730136  RH  043%=      5-min Rain = 0
KCR2 150637Z 16012KT 27/14 A2985 RMK A01 T02730136  RH  043%=      5-min Rain = 0
KCR2 150638Z 16011KT 27/14 A2985 RMK A01 T02730136  RH  043%=      5-min Rain = 0
KCR2 150639Z 16012KT 27/14 A2985 RMK A01 T02730135  RH  043%=      5-min Rain = 0
KCR2 150640Z 17010KT 27/14 A2985 RMK A01 T02730135  RH  043%=      5-min Rain = 0
KCR2 150641Z 17012KT 27/14 A2985 RMK A01 T02720135  RH  043%=      5-min Rain = 0
KCR2 150642Z 17012KT 27/14 A2985 RMK A01 T02720135  RH  043%=      5-min Rain = 0
KCR2 150643Z 17013KT 27/13 A2985 RMK A01 T02720134  RH  043%=      5-min Rain = 0
KCR2 150644Z 18011KT 27/14 A2985 RMK A01 T02730135  RH  042%=      5-min Rain = 0
KCR2 150645Z 17013KT 27/14 A2985 RMK A01 T02730135  RH  043%=      5-min Rain = 0
KCR2 150646Z 17013KT 27/13 A2985 RMK A01 T02730134  RH  043%=      5-min Rain = 0
KCR2 150647Z 17011KT 27/13 A2985 RMK A01 T02730134  RH  042%=      5-min Rain = 0
KCR2 150648Z 17011KT 27/14 A2985 RMK A01 T02730135  RH  042%=      5-min Rain = 0
KCR2 150649Z 18009KT 27/14 A2985 RMK A01 T02720135  RH  043%=      5-min Rain = 0
KCR2 150650Z 17011KT 27/14 A2985 RMK A01 T02710135  RH  043%=      5-min Rain = 0
KCR2 150651Z 18011KT 27/14 A2985 RMK A01 T02710136  RH  043%=      5-min Rain = 0
KCR2 150652Z 17010KT 27/14 A2985 RMK A01 T02720136  RH  043%=      5-min Rain = 0
KCR2 150653Z 17010KT 27/14 A2985 RMK A01 T02720136  RH  043%=      5-min Rain = 0
KCR2 150654Z 18010KT 27/14 A2985 RMK A01 T02710136  RH  043%=      5-min Rain = 0
KCR2 150655Z 17009KT 27/14 A2985 RMK A01 T02700136  RH  044%=      5-min Rain = 0
KCR2 150656Z 18008KT 27/14 A2986 RMK A01 T02690136  RH  044%=      5-min Rain = 0
KCR2 150657Z 18009KT 27/14 A2986 RMK A01 T02690136  RH  044%=      5-min Rain = 0
KCR2 150658Z 17008KT 27/14 A2986 RMK A01 T02680136  RH  044%=      5-min Rain = 0
KCR2 150659Z 17008KT 27/14 A2986 RMK A01 T02680136  RH  044%=      5-min Rain = 0
KCR2 150700Z 17007KT 27/14 A2986 RMK A01 T02670136  RH  045%=      5-min Rain = 0
KCR2 150701Z 18007KT 27/14 A2986 RMK A01 T02660136  RH  045%=      5-min Rain = 0
KCR2 150702Z 17008KT 27/14 A2986 RMK A01 T02650137  RH  045%=      5-min Rain = 0
KCR2 150703Z 17007KT 27/14 A2986 RMK A01 T02660137  RH  045%=      5-min Rain = 0
KCR2 150704Z 17008KT 27/14 A2986 RMK A01 T02660137  RH  045%=      5-min Rain = 0
KCR2 150705Z 17007KT 27/14 A2986 RMK A01 T02660137  RH  045%=      5-min Rain = 0
KCR2 150706Z 17006KT 27/14 A2986 RMK A01 T02650137  RH  045%=      5-min Rain = 0
KCR2 150707Z 17007KT 27/14 A2985 RMK A01 T02650137  RH  045%=      5-min Rain = 0
KCR2 150708Z 18006KT 26/14 A2985 RMK A01 T02640137  RH  045%=      5-min Rain = 0
KCR2 150709Z 18006KT 26/14 A2985 RMK A01 T02630137  RH  046%=      5-min Rain = 0
KCR2 150710Z 18006KT 26/14 A2985 RMK A01 T02620137  RH  046%=      5-min Rain = 0
KCR2 150711Z 18005KT 26/14 A2985 RMK A01 T02610137  RH  046%=      5-min Rain = 0
KCR2 150712Z 18005KT 26/14 A2985 RMK A01 T02610137  RH  046%=      5-min Rain = 0
KCR2 150713Z 18005KT 26/14 A2985 RMK A01 T02610137  RH  046%=      5-min Rain = 0
KCR2 150714Z 17004KT 26/14 A2985 RMK A01 T02600137  RH  047%=      5-min Rain = 0
KCR2 150715Z 17004KT 26/14 A2985 RMK A01 T02590137  RH  047%=      5-min Rain = 0
KCR2 150716Z 16005KT 26/14 A2985 RMK A01 T02580136  RH  047%=      5-min Rain = 0
KCR2 150717Z 16005KT 26/14 A2985 RMK A01 T02570136  RH  047%=      5-min Rain = 0
KCR2 150718Z 15005KT 26/14 A2986 RMK A01 T02580137  RH  047%=      5-min Rain = 0
KCR2 150719Z 14006KT 26/14 A2986 RMK A01 T02570137  RH  047%=      5-min Rain = 0
KCR2 150720Z 14006KT 26/14 A2986 RMK A01 T02550136  RH  048%=      5-min Rain = 0
KCR2 150721Z 13006KT 26/14 A2986 RMK A01 T02550136  RH  048%=      5-min Rain = 0
KCR2 150722Z 10006KT 25/14 A2985 RMK A01 T02540136  RH  048%=      5-min Rain = 0
KCR2 150723Z 07005KT 25/14 A2985 RMK A01 T02530136  RH  048%=      5-min Rain = 0
KCR2 150724Z 08005KT 25/14 A2985 RMK A01 T02500137  RH  049%=      5-min Rain = 0
KCR2 150725Z 08005KT 25/14 A2985 RMK A01 T02470137  RH  050%=      5-min Rain = 0
KCR2 150726Z 08004KT 25/14 A2985 RMK A01 T02450137  RH  051%=      5-min Rain = 0
KCR2 150727Z 09004KT 24/14 A2985 RMK A01 T02430137  RH  052%=      5-min Rain = 0
KCR2 150728Z 08006KT 24/14 A2985 RMK A01 T02420137  RH  052%=      5-min Rain = 0
KCR2 150729Z 10005KT 24/14 A2985 RMK A01 T02410137  RH  052%=      5-min Rain = 0
KCR2 150730Z 10005KT 24/14 A2985 RMK A01 T02410138  RH  052%=      5-min Rain = 0
KCR2 150731Z 11005KT 24/14 A2985 RMK A01 T02410137  RH  052%=      5-min Rain = 0
KCR2 150732Z 12005KT 24/14 A2985 RMK A01 T02420137  RH  052%=      5-min Rain = 0
KCR2 150733Z 13005KT 24/14 A2985 RMK A01 T02420136  RH  051%=      5-min Rain = 0
KCR2 150734Z 14004KT 24/14 A2985 RMK A01 T02440137  RH  051%=      5-min Rain = 0
KCR2 150735Z 15005KT 25/14 A2985 RMK A01 T02450137  RH  051%=      5-min Rain = 0
KCR2 150736Z 15004KT 25/14 A2985 RMK A01 T02450136  RH  051%=      5-min Rain = 0
KCR2 150737Z 16006KT 25/14 A2985 RMK A01 T02460137  RH  051%=      5-min Rain = 0
KCR2 150738Z 16005KT 25/14 A2985 RMK A01 T02470137  RH  050%=      5-min Rain = 0
KCR2 150739Z 17007KT 25/14 A2985 RMK A01 T02480137  RH  050%=      5-min Rain = 0
KCR2 150740Z 17008KT 25/14 A2985 RMK A01 T02490138  RH  050%=      5-min Rain = 0
KCR2 150741Z 17008KT 25/14 A2985 RMK A01 T02510139  RH  050%=      5-min Rain = 0
KCR2 150742Z 16009KT 25/14 A2985 RMK A01 T02540140  RH  049%=      5-min Rain = 0
KCR2 150743Z 17009KT 26/14 A2985 RMK A01 T02560140  RH  049%=      5-min Rain = 0
KCR2 150744Z 16007KT 26/14 A2984 RMK A01 T02580141  RH  048%=      5-min Rain = 0
KCR2 150745Z 18007KT 26/14 A2984 RMK A01 T02580140  RH  048%=      5-min Rain = 0
KCR2 150746Z 18006KT 26/14 A2984 RMK A01 T02580140  RH  048%=      5-min Rain = 0
KCR2 150747Z 18007KT 26/14 A2985 RMK A01 T02580140  RH  048%=      5-min Rain = 0
KCR2 150748Z 18007KT 26/14 A2985 RMK A01 T02580141  RH  048%=      5-min Rain = 0
KCR2 150749Z 18008KT 26/14 A2985 RMK A01 T02580141  RH  048%=      5-min Rain = 0
KCR2 150750Z 18006KT 26/14 A2985 RMK A01 T02590141  RH  048%=      5-min Rain = 0
KCR2 150751Z 19006KT 26/14 A2985 RMK A01 T02590141  RH  048%=      5-min Rain = 0
KCR2 150752Z 18008KT 26/14 A2985 RMK A01 T02580141  RH  048%=      5-min Rain = 0
KCR2 150753Z 19007KT 26/14 A2985 RMK A01 T02580142  RH  048%=      5-min Rain = 0
KCR2 150754Z 18007KT 26/14 A2985 RMK A01 T02580141  RH  048%=      5-min Rain = 0
KCR2 150755Z 19006KT 26/14 A2984 RMK A01 T02590142  RH  048%=      5-min Rain = 0
KCR2 150756Z 18007KT 26/14 A2984 RMK A01 T02590142  RH  048%=      5-min Rain = 0
KCR2 150757Z 18006KT 26/14 A2985 RMK A01 T02590142  RH  048%=      5-min Rain = 0
KCR2 150758Z 19008KT 26/14 A2985 RMK A01 T02590142  RH  049%=      5-min Rain = 0
KCR2 150759Z 18007KT 26/14 A2985 RMK A01 T02590143  RH  049%=      5-min Rain = 0
KCR2 150800Z 19007KT 26/14 A2985 RMK A01 T02590143  RH  049%=      5-min Rain = 0
KCR2 150801Z 19006KT 26/14 A2985 RMK A01 T02590143  RH  049%=      5-min Rain = 0
KCR2 150802Z 20006KT 26/14 A2985 RMK A01 T02580143  RH  049%=      5-min Rain = 0
KCR2 150803Z 19005KT 26/14 A2985 RMK A01 T02580143  RH  049%=      5-min Rain = 0
KCR2 150804Z 21004KT 26/14 A2985 RMK A01 T02570143  RH  049%=      5-min Rain = 0
KCR2 150805Z 20004KT 26/14 A2985 RMK A01 T02560142  RH  049%=      5-min Rain = 0
KCR2 150806Z 20006KT 26/14 A2985 RMK A01 T02550142  RH  050%=      5-min Rain = 0
KCR2 150807Z 20007KT 26/14 A2985 RMK A01 T02550143  RH  050%=      5-min Rain = 0
KCR2 150808Z 19006KT 26/14 A2985 RMK A01 T02550143  RH  050%=      5-min Rain = 0
KCR2 150809Z 19005KT 26/14 A2985 RMK A01 T02560143  RH  050%=      5-min Rain = 0
KCR2 150810Z 19006KT 26/14 A2985 RMK A01 T02560143  RH  050%=      5-min Rain = 0
KCR2 150811Z 19005KT 26/14 A2985 RMK A01 T02550143  RH  050%=      5-min Rain = 0
KCR2 150812Z 20006KT 26/14 A2985 RMK A01 T02550143  RH  050%=      5-min Rain = 0
KCR2 150813Z 19006KT 25/14 A2985 RMK A01 T02540143  RH  050%=      5-min Rain = 0
KCR2 150814Z 19006KT 25/14 A2985 RMK A01 T02540143  RH  050%=      5-min Rain = 0
KCR2 150815Z 20006KT 25/14 A2985 RMK A01 T02540143  RH  050%=      5-min Rain = 0
KCR2 150816Z 19005KT 25/14 A2985 RMK A01 T02540143  RH  050%=      5-min Rain = 0
KCR2 150817Z 19005KT 25/14 A2985 RMK A01 T02540143  RH  050%=      5-min Rain = 0
KCR2 150818Z 20004KT 26/14 A2985 RMK A01 T02550143  RH  050%=      5-min Rain = 0
KCR2 150819Z 19007KT 26/14 A2985 RMK A01 T02550143  RH  050%=      5-min Rain = 0
KCR2 150820Z 19007KT 26/14 A2985 RMK A01 T02550143  RH  050%=      5-min Rain = 0
KCR2 150821Z 20006KT 26/14 A2985 RMK A01 T02560143  RH  050%=      5-min Rain = 0
KCR2 150822Z 20007KT 26/14 A2985 RMK A01 T02560143  RH  050%=      5-min Rain = 0
KCR2 150823Z 19008KT 26/14 A2985 RMK A01 T02550143  RH  050%=      5-min Rain = 0
KCR2 150824Z 19007KT 26/14 A2985 RMK A01 T02550143  RH  050%=      5-min Rain = 0
KCR2 150825Z 19008KT 26/14 A2985 RMK A01 T02560144  RH  050%=      5-min Rain = 0
KCR2 150826Z 19010KT 26/14 A2985 RMK A01 T02570144  RH  050%=      5-min Rain = 0
KCR2 150827Z 19008KT 26/14 A2985 RMK A01 T02580144  RH  049%=      5-min Rain = 0
KCR2 150828Z 20006KT 26/14 A2985 RMK A01 T02580144  RH  049%=      5-min Rain = 0
KCR2 150829Z 20007KT 26/14 A2985 RMK A01 T02570144  RH  049%=      5-min Rain = 0
KCR2 150830Z 22006KT 26/14 A2985 RMK A01 T02570144  RH  050%=      5-min Rain = 0
KCR2 150831Z 21007KT 26/14 A2985 RMK A01 T02560144  RH  050%=      5-min Rain = 0
KCR2 150832Z 22008KT 26/14 A2985 RMK A01 T02560144  RH  050%=      5-min Rain = 0
KCR2 150833Z 21009KT 26/14 A2985 RMK A01 T02560144  RH  050%=      5-min Rain = 0
KCR2 150834Z 21008KT 26/14 A2985 RMK A01 T02560144  RH  050%=      5-min Rain = 0
KCR2 150835Z 21008KT 26/15 A2985 RMK A01 T02560145  RH  050%=      5-min Rain = 0
KCR2 150836Z 21008KT 26/14 A2985 RMK A01 T02550144  RH  050%=      5-min Rain = 0
KCR2 150837Z 21008KT 25/14 A2985 RMK A01 T02540144  RH  051%=      5-min Rain = 0
KCR2 150838Z 21010KT 25/14 A2985 RMK A01 T02540144  RH  051%=      5-min Rain = 0
KCR2 150839Z 21008KT 25/15 A2985 RMK A01 T02540145  RH  051%=      5-min Rain = 0
KCR2 150840Z 20009KT 25/14 A2985 RMK A01 T02530144  RH  051%=      5-min Rain = 0
KCR2 150841Z 20008KT 25/15 A2985 RMK A01 T02530145  RH  051%=      5-min Rain = 0
KCR2 150842Z 19010KT 25/15 A2985 RMK A01 T02530145  RH  051%=      5-min Rain = 0
KCR2 150843Z 20011KT 25/15 A2985 RMK A01 T02530145  RH  051%=      5-min Rain = 0
KCR2 150844Z 20011KT 25/15 A2985 RMK A01 T02530145  RH  051%=      5-min Rain = 0
KCR2 150845Z 20010KT 25/15 A2985 RMK A01 T02540145  RH  051%=      5-min Rain = 0
KCR2 150846Z 20011KT 25/15 A2985 RMK A01 T02530145  RH  051%=      5-min Rain = 0
KCR2 150847Z 20009KT 25/14 A2985 RMK A01 T02530144  RH  051%=      5-min Rain = 0
KCR2 150848Z 19011KT 25/14 A2985 RMK A01 T02530144  RH  051%=      5-min Rain = 0
KCR2 150849Z 20010KT 25/14 A2985 RMK A01 T02530144  RH  051%=      5-min Rain = 0
KCR2 150850Z 20012KT 25/14 A2985 RMK A01 T02520144  RH  051%=      5-min Rain = 0
KCR2 150851Z 20011KT 25/14 A2985 RMK A01 T02530144  RH  051%=      5-min Rain = 0
KCR2 150852Z 21010KT 25/14 A2985 RMK A01 T02530144  RH  051%=      5-min Rain = 0
KCR2 150853Z 20009KT 25/15 A2985 RMK A01 T02530145  RH  051%=      5-min Rain = 0
KCR2 150854Z 21009KT 25/14 A2985 RMK A01 T02520144  RH  051%=      5-min Rain = 0
KCR2 150855Z 21009KT 25/15 A2985 RMK A01 T02510145  RH  052%=      5-min Rain = 0
KCR2 150856Z 20011KT 25/14 A2985 RMK A01 T02500144  RH  052%=      5-min Rain = 0
KCR2 150857Z 20011KT 25/15 A2985 RMK A01 T02490145  RH  052%=      5-min Rain = 0
KCR2 150858Z 20012KT 25/15 A2985 RMK A01 T02490145  RH  052%=      5-min Rain = 0
KCR2 150859Z 19011KT 25/15 A2985 RMK A01 T02490145  RH  052%=      5-min Rain = 0
KCR2 150900Z 20014KT 25/15 A2985 RMK A01 T02490145  RH  052%=      5-min Rain = 0
KCR2 150901Z 19013KT 25/15 A2985 RMK A01 T02510145  RH  052%=      5-min Rain = 0
KCR2 150902Z 20012KT 25/15 A2985 RMK A01 T02510145  RH  052%=      5-min Rain = 0
KCR2 150903Z 21011KT 25/15 A2985 RMK A01 T02510145  RH  052%=      5-min Rain = 0
KCR2 150904Z 20012KT 25/15 A2985 RMK A01 T02510145  RH  052%=      5-min Rain = 0
KCR2 150905Z 21011KT 25/15 A2985 RMK A01 T02500145  RH  052%=      5-min Rain = 0
KCR2 150906Z 20011KT 25/15 A2985 RMK A01 T02490145  RH  052%=      5-min Rain = 0
KCR2 150907Z 20012KT 25/15 A2985 RMK A01 T02490145  RH  052%=      5-min Rain = 0
KCR2 150908Z 20012KT 25/15 A2985 RMK A01 T02490145  RH  053%=      5-min Rain = 0
KCR2 150909Z 20012KT 25/15 A2985 RMK A01 T02480145  RH  053%=      5-min Rain = 0
KCR2 150910Z 20013KT 25/15 A2985 RMK A01 T02480145  RH  053%=      5-min Rain = 0
KCR2 150911Z 20012KT 25/15 A2985 RMK A01 T02480145  RH  053%=      5-min Rain = 0
KCR2 150912Z 21011KT 25/14 A2985 RMK A01 T02470144  RH  053%=      5-min Rain = 0
KCR2 150913Z 21011KT 25/14 A2985 RMK A01 T02470144  RH  053%=      5-min Rain = 0
KCR2 150914Z 21010KT 25/14 A2985 RMK A01 T02460144  RH  053%=      5-min Rain = 0
KCR2 150915Z 21011KT 25/14 A2985 RMK A01 T02460144  RH  053%=      5-min Rain = 0
KCR2 150916Z 21012KT 25/14 A2985 RMK A01 T02460144  RH  053%=      5-min Rain = 0
KCR2 150917Z 21012KT 25/14 A2985 RMK A01 T02460143  RH  053%=      5-min Rain = 0
KCR2 150918Z 21011KT 25/14 A2985 RMK A01 T02460143  RH  053%=      5-min Rain = 0
KCR2 150919Z 21010KT 25/14 A2985 RMK A01 T02460143  RH  053%=      5-min Rain = 0
KCR2 150920Z 21009KT 25/14 A2985 RMK A01 T02450143  RH  053%=      5-min Rain = 0
KCR2 150921Z 20012KT 25/14 A2985 RMK A01 T02450143  RH  053%=      5-min Rain = 0
KCR2 150922Z 21012KT 24/14 A2985 RMK A01 T02440142  RH  053%=      5-min Rain = 0
KCR2 150923Z 21013KT 24/14 A2985 RMK A01 T02440141  RH  053%=      5-min Rain = 0
KCR2 150924Z 21011KT 24/14 A2986 RMK A01 T02440142  RH  053%=      5-min Rain = 0
KCR2 150925Z 21011KT 24/14 A2985 RMK A01 T02440141  RH  053%=      5-min Rain = 0
KCR2 150926Z 21012KT 24/14 A2985 RMK A01 T02440140  RH  052%=      5-min Rain = 0
KCR2 150927Z 21011KT 24/14 A2985 RMK A01 T02440139  RH  052%=      5-min Rain = 0
KCR2 150928Z 21011KT 24/14 A2985 RMK A01 T02440139  RH  052%=      5-min Rain = 0
KCR2 150929Z 21012KT 24/14 A2985 RMK A01 T02440139  RH  052%=      5-min Rain = 0
KCR2 150930Z 22009KT 24/14 A2985 RMK A01 T02440139  RH  052%=      5-min Rain = 0
KCR2 150931Z 22010KT 24/14 A2985 RMK A01 T02430139  RH  052%=      5-min Rain = 0
KCR2 150932Z 22009KT 24/14 A2985 RMK A01 T02420139  RH  052%=      5-min Rain = 0
KCR2 150933Z 22009KT 24/14 A2985 RMK A01 T02420139  RH  053%=      5-min Rain = 0
KCR2 150934Z 22009KT 24/14 A2985 RMK A01 T02410140  RH  053%=      5-min Rain = 0
KCR2 150935Z 22008KT 24/14 A2985 RMK A01 T02410140  RH  053%=      5-min Rain = 0
KCR2 150936Z 21009KT 24/14 A2985 RMK A01 T02410139  RH  053%=      5-min Rain = 0
KCR2 150937Z 22010KT 24/14 A2985 RMK A01 T02400139  RH  053%=      5-min Rain = 0
KCR2 150938Z 22009KT 24/14 A2985 RMK A01 T02400140  RH  053%=      5-min Rain = 0
KCR2 150939Z 22008KT 24/14 A2985 RMK A01 T02400140  RH  054%=      5-min Rain = 0
KCR2 150940Z 22009KT 24/14 A2985 RMK A01 T02390140  RH  054%=      5-min Rain = 0
KCR2 150941Z 21008KT 24/14 A2985 RMK A01 T02390140  RH  054%=      5-min Rain = 0
KCR2 150942Z 21008KT 24/14 A2985 RMK A01 T02380139  RH  054%=      5-min Rain = 0
KCR2 150943Z 21008KT 24/14 A2985 RMK A01 T02380139  RH  054%=      5-min Rain = 0
KCR2 150944Z 21007KT 24/14 A2985 RMK A01 T02380139  RH  054%=      5-min Rain = 0
KCR2 150945Z 21007KT 24/14 A2985 RMK A01 T02370138  RH  054%=      5-min Rain = 0
KCR2 150946Z 21006KT 24/14 A2986 RMK A01 T02360138  RH  054%=      5-min Rain = 0
KCR2 150947Z 22006KT 24/14 A2986 RMK A01 T02360138  RH  054%=      5-min Rain = 0
KCR2 150948Z 22006KT 24/14 A2986 RMK A01 T02350138  RH  054%=      5-min Rain = 0
KCR2 150949Z 22006KT 23/14 A2986 RMK A01 T02340138  RH  055%=      5-min Rain = 0
KCR2 150950Z 22006KT 23/14 A2986 RMK A01 T02340139  RH  055%=      5-min Rain = 0
KCR2 150951Z 22007KT 23/14 A2986 RMK A01 T02340140  RH  055%=      5-min Rain = 0
KCR2 150952Z 22006KT 23/14 A2986 RMK A01 T02340140  RH  056%=      5-min Rain = 0
KCR2 150953Z 22005KT 23/14 A2986 RMK A01 T02330140  RH  056%=      5-min Rain = 0
KCR2 150954Z 22006KT 23/14 A2986 RMK A01 T02330140  RH  056%=      5-min Rain = 0
KCR2 150955Z 22005KT 23/14 A2986 RMK A01 T02330141  RH  056%=      5-min Rain = 0
KCR2 150956Z 22006KT 23/14 A2986 RMK A01 T02320140  RH  056%=      5-min Rain = 0
KCR2 150957Z 22006KT 23/14 A2986 RMK A01 T02310140  RH  057%=      5-min Rain = 0
KCR2 150958Z 22006KT 23/14 A2986 RMK A01 T02310140  RH  057%=      5-min Rain = 0
KCR2 150959Z 21005KT 23/14 A2986 RMK A01 T02310139  RH  056%=      5-min Rain = 0
KCR2 151000Z 21005KT 23/14 A2986 RMK A01 T02300139  RH  056%=      5-min Rain = 0
KCR2 151001Z 20005KT 23/14 A2986 RMK A01 T02300138  RH  056%=      5-min Rain = 0
KCR2 151002Z 20005KT 23/14 A2986 RMK A01 T02290137  RH  056%=      5-min Rain = 0
KCR2 151003Z 20005KT 23/14 A2986 RMK A01 T02280136  RH  056%=      5-min Rain = 0
KCR2 151004Z 20005KT 23/14 A2986 RMK A01 T02280136  RH  056%=      5-min Rain = 0
KCR2 151005Z 20004KT 23/14 A2986 RMK A01 T02270136  RH  056%=      5-min Rain = 0
KCR2 151006Z 20005KT 23/14 A2986 RMK A01 T02280136  RH  056%=      5-min Rain = 0
KCR2 151007Z 20006KT 23/14 A2985 RMK A01 T02280135  RH  056%=      5-min Rain = 0
KCR2 151008Z 20006KT 23/13 A2985 RMK A01 T02280134  RH  055%=      5-min Rain = 0
KCR2 151009Z 20008KT 23/13 A2985 RMK A01 T02290134  RH  055%=      5-min Rain = 0
KCR2 151010Z 21006KT 23/13 A2985 RMK A01 T02310133  RH  054%=      5-min Rain = 0
KCR2 151011Z 20007KT 23/13 A2985 RMK A01 T02320133  RH  054%=      5-min Rain = 0
KCR2 151012Z 20007KT 23/13 A2985 RMK A01 T02320132  RH  053%=      5-min Rain = 0
KCR2 151013Z 20008KT 23/13 A2985 RMK A01 T02330132  RH  053%=      5-min Rain = 0
KCR2 151014Z 20007KT 23/13 A2985 RMK A01 T02330131  RH  053%=      5-min Rain = 0
KCR2 151015Z 20007KT 23/13 A2985 RMK A01 T02330131  RH  053%=      5-min Rain = 0
KCR2 151016Z 20007KT 23/13 A2985 RMK A01 T02330131  RH  053%=      5-min Rain = 0
KCR2 151017Z 21006KT 23/13 A2985 RMK A01 T02320130  RH  053%=      5-min Rain = 0
KCR2 151018Z 21006KT 23/13 A2985 RMK A01 T02320130  RH  053%=      5-min Rain = 0
KCR2 151019Z 22005KT 23/13 A2985 RMK A01 T02320130  RH  053%=      5-min Rain = 0
KCR2 151020Z 22006KT 23/13 A2986 RMK A01 T02330131  RH  053%=      5-min Rain = 0
KCR2 151021Z 23006KT 23/13 A2986 RMK A01 T02320131  RH  053%=      5-min Rain = 0
KCR2 151022Z 23005KT 23/13 A2986 RMK A01 T02320132  RH  053%=      5-min Rain = 0
KCR2 151023Z 23005KT 23/13 A2986 RMK A01 T02320133  RH  054%=      5-min Rain = 0
KCR2 151024Z 23005KT 23/13 A2986 RMK A01 T02310133  RH  054%=      5-min Rain = 0
KCR2 151025Z 24005KT 23/13 A2986 RMK A01 T02310133  RH  054%=      5-min Rain = 0
KCR2 151026Z 24005KT 23/13 A2986 RMK A01 T02300132  RH  054%=      5-min Rain = 0
KCR2 151027Z 24005KT 23/13 A2986 RMK A01 T02300132  RH  054%=      5-min Rain = 0
KCR2 151028Z 24004KT 23/13 A2986 RMK A01 T02290132  RH  054%=      5-min Rain = 0
KCR2 151029Z 24004KT 23/13 A2985 RMK A01 T02290131  RH  054%=      5-min Rain = 0
KCR2 151030Z 24003KT 23/13 A2985 RMK A01 T02290131  RH  054%=      5-min Rain = 0
KCR2 151031Z 23004KT 23/13 A2985 RMK A01 T02290131  RH  054%=      5-min Rain = 0
KCR2 151032Z 21004KT 23/13 A2986 RMK A01 T02280131  RH  054%=      5-min Rain = 0
KCR2 151033Z 22004KT 23/13 A2985 RMK A01 T02270131  RH  055%=      5-min Rain = 0
KCR2 151034Z 21004KT 23/13 A2985 RMK A01 T02260131  RH  055%=      5-min Rain = 0
KCR2 151035Z 20004KT 23/13 A2985 RMK A01 T02260130  RH  055%=      5-min Rain = 0
KCR2 151036Z 20003KT 23/13 A2985 RMK A01 T02270130  RH  054%=      5-min Rain = 0
KCR2 151037Z 20003KT 23/13 A2985 RMK A01 T02270129  RH  054%=      5-min Rain = 0
KCR2 151038Z 21004KT 23/13 A2985 RMK A01 T02270128  RH  053%=      5-min Rain = 0
KCR2 151039Z 21004KT 23/13 A2985 RMK A01 T02280128  RH  053%=      5-min Rain = 0
KCR2 151040Z 22004KT 23/13 A2985 RMK A01 T02280127  RH  053%=      5-min Rain = 0
KCR2 151041Z 22004KT 23/13 A2985 RMK A01 T02280127  RH  053%=      5-min Rain = 0
KCR2 151042Z 21004KT 23/13 A2985 RMK A01 T02280127  RH  053%=      5-min Rain = 0
KCR2 151043Z 21003KT 23/13 A2985 RMK A01 T02280128  RH  053%=      5-min Rain = 0
KCR2 151044Z 21003KT 23/13 A2985 RMK A01 T02260127  RH  053%=      5-min Rain = 0
KCR2 151045Z 21003KT 23/13 A2985 RMK A01 T02260127  RH  054%=      5-min Rain = 0
KCR2 151046Z 21003KT 23/13 A2985 RMK A01 T02260128  RH  054%=      5-min Rain = 0
KCR2 151047Z 21003KT 23/13 A2985 RMK A01 T02250128  RH  054%=      5-min Rain = 0
KCR2 151048Z 21003KT 23/13 A2985 RMK A01 T02250128  RH  054%=      5-min Rain = 0
KCR2 151049Z 21003KT 23/13 A2985 RMK A01 T02250128  RH  054%=      5-min Rain = 0
KCR2 151050Z 22003KT 23/13 A2985 RMK A01 T02260128  RH  054%=      5-min Rain = 0
KCR2 151051Z 21003KT 23/13 A2985 RMK A01 T02260128  RH  054%=      5-min Rain = 0
KCR2 151052Z 21003KT 23/13 A2985 RMK A01 T02260128  RH  054%=      5-min Rain = 0
KCR2 151053Z 20003KT 23/13 A2985 RMK A01 T02270128  RH  054%=      5-min Rain = 0
KCR2 151054Z 21003KT 23/13 A2985 RMK A01 T02260127  RH  054%=      5-min Rain = 0
KCR2 151055Z 21002KT 23/13 A2985 RMK A01 T02260128  RH  054%=      5-min Rain = 0
KCR2 151056Z 22002KT 23/13 A2985 RMK A01 T02260129  RH  054%=      5-min Rain = 0
KCR2 151057Z 22002KT 23/13 A2985 RMK A01 T02260129  RH  054%=      5-min Rain = 0
KCR2 151058Z 21002KT 23/13 A2985 RMK A01 T02250129  RH  055%=      5-min Rain = 0
KCR2 151059Z 21002KT 22/13 A2985 RMK A01 T02240129  RH  055%=      5-min Rain = 0
KCR2 151100Z 21002KT 22/13 A2985 RMK A01 T02240128  RH  055%=      5-min Rain = 0
KCR2 151101Z 21002KT 22/13 A2985 RMK A01 T02230127  RH  055%=      5-min Rain = 0
KCR2 151102Z 21002KT 22/13 A2985 RMK A01 T02230127  RH  055%=      5-min Rain = 0
KCR2 151103Z 21002KT 22/13 A2985 RMK A01 T02230127  RH  055%=      5-min Rain = 0
KCR2 151104Z 21001KT 22/13 A2985 RMK A01 T02230128  RH  055%=      5-min Rain = 0
KCR2 151105Z 21001KT 22/13 A2985 RMK A01 T02220127  RH  055%=      5-min Rain = 0
KCR2 151106Z 21001KT 22/13 A2985 RMK A01 T02220127  RH  055%=      5-min Rain = 0
KCR2 151107Z 22001KT 22/13 A2986 RMK A01 T02220127  RH  055%=      5-min Rain = 0
KCR2 151108Z 22001KT 22/13 A2986 RMK A01 T02220127  RH  055%=      5-min Rain = 0
KCR2 151109Z 23001KT 22/13 A2986 RMK A01 T02220126  RH  054%=      5-min Rain = 0
KCR2 151110Z 23001KT 22/13 A2986 RMK A01 T02220126  RH  054%=      5-min Rain = 0
KCR2 151111Z 24001KT 22/13 A2986 RMK A01 T02220125  RH  054%=      5-min Rain = 0
KCR2 151112Z 23002KT 22/13 A2986 RMK A01 T02230125  RH  054%=      5-min Rain = 0
KCR2 151113Z 22003KT 22/13 A2986 RMK A01 T02230125  RH  054%=      5-min Rain = 0
KCR2 151114Z 24002KT 22/13 A2986 RMK A01 T02230125  RH  054%=      5-min Rain = 0
KCR2 151115Z 25003KT 22/13 A2986 RMK A01 T02230127  RH  054%=      5-min Rain = 0
KCR2 151116Z 28002KT 22/13 A2986 RMK A01 T02190126  RH  056%=      5-min Rain = 0
KCR2 151117Z 29002KT 21/13 A2986 RMK A01 T02130126  RH  057%=      5-min Rain = 0
KCR2 151118Z 29002KT 21/13 A2986 RMK A01 T02080125  RH  059%=      5-min Rain = 0
KCR2 151119Z 28001KT 21/13 A2986 RMK A01 T02050126  RH  060%=      5-min Rain = 0
KCR2 151120Z 29002KT 20/13 A2986 RMK A01 T02040127  RH  061%=      5-min Rain = 0
KCR2 151121Z 29002KT 20/13 A2986 RMK A01 T02030127  RH  062%=      5-min Rain = 0
KCR2 151122Z 29002KT 20/13 A2986 RMK A01 T02020127  RH  062%=      5-min Rain = 0
KCR2 151123Z 29003KT 20/13 A2986 RMK A01 T02010127  RH  062%=      5-min Rain = 0
KCR2 151124Z 27002KT 20/13 A2986 RMK A01 T02010128  RH  063%=      5-min Rain = 0
KCR2 151125Z 29002KT 20/13 A2986 RMK A01 T02010127  RH  063%=      5-min Rain = 0
KCR2 151126Z 29003KT 20/13 A2986 RMK A01 T02000128  RH  063%=      5-min Rain = 0
KCR2 151127Z 28003KT 20/13 A2986 RMK A01 T02000128  RH  063%=      5-min Rain = 0
KCR2 151128Z 27003KT 20/13 A2986 RMK A01 T02000130  RH  064%=      5-min Rain = 0
KCR2 151129Z 27003KT 20/13 A2986 RMK A01 T02010131  RH  064%=      5-min Rain = 0
KCR2 151130Z 27003KT 20/13 A2986 RMK A01 T02010131  RH  064%=      5-min Rain = 0
KCR2 151131Z 27003KT 20/13 A2986 RMK A01 T02010131  RH  064%=      5-min Rain = 0
KCR2 151132Z 26003KT 20/13 A2986 RMK A01 T02010130  RH  064%=      5-min Rain = 0
KCR2 151133Z 27003KT 20/13 A2986 RMK A01 T02010131  RH  064%=      5-min Rain = 0
KCR2 151134Z 27003KT 20/13 A2986 RMK A01 T02010131  RH  064%=      5-min Rain = 0
KCR2 151135Z 27003KT 20/13 A2986 RMK A01 T02010131  RH  064%=      5-min Rain = 0
KCR2 151136Z 26004KT 20/13 A2987 RMK A01 T02010131  RH  064%=      5-min Rain = 0
KCR2 151137Z 26004KT 20/13 A2987 RMK A01 T02010131  RH  064%=      5-min Rain = 0
KCR2 151138Z 25004KT 20/13 A2987 RMK A01 T02010131  RH  064%=      5-min Rain = 0
KCR2 151139Z 24003KT 20/13 A2986 RMK A01 T02010131  RH  064%=      5-min Rain = 0
KCR2 151140Z 24003KT 20/13 A2986 RMK A01 T02010131  RH  064%=      5-min Rain = 0
KCR2 151141Z 24003KT 20/13 A2986 RMK A01 T02020131  RH  064%=      5-min Rain = 0
KCR2 151142Z 23003KT 20/13 A2986 RMK A01 T02010130  RH  064%=      5-min Rain = 0
KCR2 151143Z 22002KT 20/13 A2986 RMK A01 T02010130  RH  064%=      5-min Rain = 0
KCR2 151144Z 21002KT 20/13 A2986 RMK A01 T02000130  RH  064%=      5-min Rain = 0
KCR2 151145Z 21002KT 20/13 A2986 RMK A01 T01990130  RH  064%=      5-min Rain = 0
KCR2 151146Z 20002KT 20/13 A2986 RMK A01 T01990130  RH  064%=      5-min Rain = 0
KCR2 151147Z 20003KT 20/13 A2986 RMK A01 T01990129  RH  064%=      5-min Rain = 0
KCR2 151148Z 21003KT 20/13 A2986 RMK A01 T01980129  RH  064%=      5-min Rain = 0
KCR2 151149Z 19003KT 20/13 A2986 RMK A01 T01980129  RH  064%=      5-min Rain = 0
KCR2 151150Z 20003KT 20/13 A2986 RMK A01 T01980129  RH  064%=      5-min Rain = 0
KCR2 151151Z 22003KT 20/13 A2986 RMK A01 T01980129  RH  065%=      5-min Rain = 0
KCR2 151152Z 23003KT 20/13 A2986 RMK A01 T01970129  RH  065%=      5-min Rain = 0
KCR2 151153Z 23003KT 20/13 A2986 RMK A01 T01970129  RH  065%=      5-min Rain = 0
KCR2 151154Z 22004KT 20/13 A2986 RMK A01 T01970130  RH  065%=      5-min Rain = 0
KCR2 151155Z 21004KT 20/13 A2986 RMK A01 T01980130  RH  065%=      5-min Rain = 0
KCR2 151156Z 21004KT 20/13 A2986 RMK A01 T01980130  RH  065%=      5-min Rain = 0
KCR2 151157Z 21004KT 20/13 A2986 RMK A01 T01980129  RH  065%=      5-min Rain = 0
KCR2 151158Z 22004KT 20/13 A2986 RMK A01 T01980130  RH  065%=      5-min Rain = 0
KCR2 151159Z 22003KT 20/13 A2986 RMK A01 T01980130  RH  065%=      5-min Rain = 0
KCR2 151200Z 23003KT 20/13 A2986 RMK A01 T01970129  RH  065%=      5-min Rain = 0
KCR2 151201Z 22003KT 20/13 A2986 RMK A01 T01950129  RH  066%=      5-min Rain = 0
KCR2 151202Z 21004KT 20/13 A2986 RMK A01 T01950130  RH  066%=      5-min Rain = 0
KCR2 151203Z 20005KT 20/13 A2986 RMK A01 T01950131  RH  066%=      5-min Rain = 0
KCR2 151204Z 20005KT 20/13 A2986 RMK A01 T01960131  RH  066%=      5-min Rain = 0
KCR2 151205Z 20005KT 20/13 A2986 RMK A01 T01970130  RH  065%=      5-min Rain = 0
KCR2 151206Z 20006KT 20/13 A2986 RMK A01 T01990126  RH  063%=      5-min Rain = 0
KCR2 151207Z 20007KT 20/12 A2986 RMK A01 T02030122  RH  060%=      5-min Rain = 0
KCR2 151208Z 20007KT 21/12 A2987 RMK A01 T02080122  RH  058%=      5-min Rain = 0
KCR2 151209Z 21007KT 21/12 A2987 RMK A01 T02120121  RH  056%=      5-min Rain = 0
KCR2 151210Z 22006KT 22/12 A2987 RMK A01 T02150121  RH  055%=      5-min Rain = 0
KCR2 151211Z 23005KT 22/12 A2987 RMK A01 T02160122  RH  055%=      5-min Rain = 0
KCR2 151212Z 22006KT 22/13 A2987 RMK A01 T02170126  RH  056%=      5-min Rain = 0
KCR2 151213Z 21006KT 22/13 A2987 RMK A01 T02170126  RH  056%=      5-min Rain = 0
KCR2 151214Z 21006KT 22/12 A2987 RMK A01 T02180123  RH  055%=      5-min Rain = 0
KCR2 151215Z 20007KT 22/12 A2987 RMK A01 T02190122  RH  054%=      5-min Rain = 0
KCR2 151216Z 21006KT 22/12 A2987 RMK A01 T02200121  RH  053%=      5-min Rain = 0
KCR2 151217Z 21007KT 22/12 A2987 RMK A01 T02210121  RH  053%=      5-min Rain = 0
KCR2 151218Z 21007KT 22/12 A2987 RMK A01 T02220120  RH  052%=      5-min Rain = 0
KCR2 151219Z 21007KT 23/12 A2987 RMK A01 T02250120  RH  052%=      5-min Rain = 0
KCR2 151220Z 21008KT 23/12 A2987 RMK A01 T02270120  RH  051%=      5-min Rain = 0
KCR2 151221Z 21008KT 23/12 A2987 RMK A01 T02290120  RH  050%=      5-min Rain = 0
KCR2 151222Z 20009KT 23/12 A2987 RMK A01 T02320120  RH  049%=      5-min Rain = 0
KCR2 151223Z 20009KT 24/12 A2987 RMK A01 T02350121  RH  049%=      5-min Rain = 0
KCR2 151224Z 20009KT 24/12 A2987 RMK A01 T02370121  RH  048%=      5-min Rain = 0
KCR2 151225Z 21009KT 24/12 A2987 RMK A01 T02390121  RH  048%=      5-min Rain = 0
KCR2 151226Z 20008KT 24/12 A2987 RMK A01 T02400121  RH  047%=      5-min Rain = 0
KCR2 151227Z 21009KT 24/12 A2987 RMK A01 T02410121  RH  047%=      5-min Rain = 0
KCR2 151228Z 21009KT 24/12 A2987 RMK A01 T02410122  RH  047%=      5-min Rain = 0
KCR2 151229Z 21010KT 24/12 A2987 RMK A01 T02420123  RH  047%=      5-min Rain = 0
KCR2 151230Z 21008KT 24/12 A2987 RMK A01 T02430123  RH  047%=      5-min Rain = 0
KCR2 151231Z 21009KT 24/12 A2987 RMK A01 T02440124  RH  047%=      5-min Rain = 0
KCR2 151232Z 22010KT 24/13 A2987 RMK A01 T02440125  RH  047%=      5-min Rain = 0
KCR2 151233Z 21009KT 25/13 A2987 RMK A01 T02450126  RH  047%=      5-min Rain = 0
KCR2 151234Z 21009KT 25/13 A2987 RMK A01 T02450127  RH  047%=      5-min Rain = 0
KCR2 151235Z 22010KT 25/13 A2987 RMK A01 T02460126  RH  047%=      5-min Rain = 0
KCR2 151236Z 21008KT 25/13 A2987 RMK A01 T02470127  RH  047%=      5-min Rain = 0
KCR2 151237Z 21009KT 25/13 A2987 RMK A01 T02480127  RH  047%=      5-min Rain = 0
KCR2 151238Z 21009KT 25/13 A2987 RMK A01 T02490127  RH  047%=      5-min Rain = 0
KCR2 151239Z 21010KT 25/13 A2987 RMK A01 T02500127  RH  046%=      5-min Rain = 0
KCR2 151240Z 21010KT 25/13 A2987 RMK A01 T02500127  RH  046%=      5-min Rain = 0
KCR2 151241Z 21010KT 25/13 A2987 RMK A01 T02510128  RH  046%=      5-min Rain = 0
KCR2 151242Z 21010KT 25/13 A2987 RMK A01 T02510128  RH  046%=      5-min Rain = 0
KCR2 151243Z 22010KT 25/13 A2987 RMK A01 T02520128  RH  046%=      5-min Rain = 0
KCR2 151244Z 22010KT 25/13 A2987 RMK A01 T02530128  RH  046%=      5-min Rain = 0
KCR2 151245Z 22011KT 25/13 A2987 RMK A01 T02530129  RH  046%=      5-min Rain = 0
KCR2 151246Z 21012KT 25/13 A2987 RMK A01 T02540129  RH  046%=      5-min Rain = 0
KCR2 151247Z 21014KT 26/13 A2987 RMK A01 T02550130  RH  046%=      5-min Rain = 0
KCR2 151248Z 21010KT 26/13 A2987 RMK A01 T02560130  RH  046%=      5-min Rain = 0
KCR2 151249Z 21012KT 26/13 A2987 RMK A01 T02560131  RH  046%=      5-min Rain = 0
KCR2 151250Z 22013KT 26/13 A2987 RMK A01 T02560131  RH  046%=      5-min Rain = 0
KCR2 151251Z 22012KT 26/13 A2987 RMK A01 T02570131  RH  046%=      5-min Rain = 0
KCR2 151252Z 21014KT 26/13 A2987 RMK A01 T02570131  RH  046%=      5-min Rain = 0
KCR2 151253Z 21014KT 26/13 A2987 RMK A01 T02580131  RH  045%=      5-min Rain = 0
KCR2 151254Z 21012KT 26/13 A2987 RMK A01 T02580130  RH  045%=      5-min Rain = 0
KCR2 151255Z 22010KT 26/13 A2987 RMK A01 T02580131  RH  045%=      5-min Rain = 0
KCR2 151256Z 22011KT 26/13 A2987 RMK A01 T02590132  RH  046%=      5-min Rain = 0
KCR2 151257Z 21012G17KT 26/13 A2987 RMK A01 T02580132  RH  046%=      5-min Rain = 0
KCR2 151258Z 21012KT 26/13 A2987 RMK A01 T02590132  RH  045%=      5-min Rain = 0
KCR2 151259Z 21010KT 26/13 A2987 RMK A01 T02590132  RH  045%=      5-min Rain = 0
KCR2 151300Z 22011KT 26/13 A2987 RMK A01 T02600132  RH  045%=      5-min Rain = 0
KCR2 151301Z 21012KT 26/13 A2987 RMK A01 T02600132  RH  045%=      5-min Rain = 0
KCR2 151302Z 22010KT 26/13 A2987 RMK A01 T02600133  RH  045%=      5-min Rain = 0
KCR2 151303Z 22012KT 26/13 A2987 RMK A01 T02600132  RH  045%=      5-min Rain = 0
KCR2 151304Z 22010KT 26/13 A2987 RMK A01 T02600132  RH  045%=      5-min Rain = 0
KCR2 151305Z 22009KT 26/13 A2987 RMK A01 T02600133  RH  045%=      5-min Rain = 0
KCR2 151306Z 22008KT 26/14 A2987 RMK A01 T02600135  RH  046%=      5-min Rain = 0
KCR2 151307Z 21010KT 26/14 A2987 RMK A01 T02610135  RH  046%=      5-min Rain = 0
KCR2 151308Z 22011KT 26/13 A2987 RMK A01 T02610134  RH  045%=      5-min Rain = 0
KCR2 151309Z 22010KT 26/14 A2987 RMK A01 T02610135  RH  046%=      5-min Rain = 0
KCR2 151310Z 22010G16KT 26/14 A2987 RMK A01 T02610136  RH  046%=      5-min Rain = 0
KCR2 151311Z 22012KT 26/14 A2987 RMK A01 T02620135  RH  045%=      5-min Rain = 0
KCR2 151312Z 23012KT 26/14 A2987 RMK A01 T02620135  RH  045%=      5-min Rain = 0
KCR2 151313Z 22011KT 26/14 A2987 RMK A01 T02620136  RH  046%=      5-min Rain = 0
KCR2 151314Z 22011KT 26/14 A2987 RMK A01 T02630137  RH  046%=      5-min Rain = 0
KCR2 151315Z 22011KT 26/14 A2987 RMK A01 T02630138  RH  046%=      5-min Rain = 0
KCR2 151316Z 23011KT 26/14 A2987 RMK A01 T02640137  RH  046%=      5-min Rain = 0
KCR2 151317Z 22012KT 26/14 A2987 RMK A01 T02640138  RH  046%=      5-min Rain = 0
KCR2 151318Z 22013KT 26/14 A2987 RMK A01 T02640136  RH  045%=      5-min Rain = 0
KCR2 151319Z 22011KT 26/14 A2987 RMK A01 T02640137  RH  046%=      5-min Rain = 0
KCR2 151320Z 22012KT 26/14 A2987 RMK A01 T02640137  RH  046%=      5-min Rain = 0
KCR2 151321Z 22013KT 26/14 A2987 RMK A01 T02640137  RH  045%=      5-min Rain = 0
KCR2 151322Z 22012KT 26/14 A2987 RMK A01 T02640138  RH  046%=      5-min Rain = 0
KCR2 151323Z 22010KT 26/14 A2987 RMK A01 T02640139  RH  046%=      5-min Rain = 0
KCR2 151324Z 22013KT 26/14 A2987 RMK A01 T02640139  RH  046%=      5-min Rain = 0
KCR2 151325Z 22014KT 26/14 A2987 RMK A01 T02640137  RH  045%=      5-min Rain = 0
KCR2 151326Z 22011KT 26/14 A2987 RMK A01 T02640138  RH  046%=      5-min Rain = 0
KCR2 151327Z 22014KT 26/14 A2987 RMK A01 T02640137  RH  046%=      5-min Rain = 0
KCR2 151328Z 22014KT 26/14 A2987 RMK A01 T02640138  RH  046%=      5-min Rain = 0
KCR2 151329Z 22013KT 26/14 A2987 RMK A01 T02640137  RH  046%=      5-min Rain = 0
KCR2 151330Z 22012KT 26/14 A2987 RMK A01 T02640138  RH  046%=      5-min Rain = 0
KCR2 151331Z 22011KT 27/14 A2987 RMK A01 T02650139  RH  046%=      5-min Rain = 0
KCR2 151332Z 22012KT 27/14 A2987 RMK A01 T02660140  RH  046%=      5-min Rain = 0
KCR2 151333Z 22012KT 27/14 A2987 RMK A01 T02660140  RH  046%=      5-min Rain = 0
KCR2 151334Z 22013KT 27/14 A2987 RMK A01 T02660139  RH  046%=      5-min Rain = 0
KCR2 151335Z 22012KT 27/14 A2987 RMK A01 T02660140  RH  046%=      5-min Rain = 0
KCR2 151336Z 22013KT 27/14 A2987 RMK A01 T02660141  RH  046%=      5-min Rain = 0
KCR2 151337Z 23012KT 27/14 A2987 RMK A01 T02660142  RH  046%=      5-min Rain = 0
KCR2 151338Z 23012KT 27/14 A2987 RMK A01 T02660140  RH  046%=      5-min Rain = 0
KCR2 151339Z 22010KT 27/14 A2987 RMK A01 T02660143  RH  047%=      5-min Rain = 0
KCR2 151340Z 22011KT 27/14 A2987 RMK A01 T02670143  RH  046%=      5-min Rain = 0
KCR2 151341Z 22012KT 27/14 A2987 RMK A01 T02670141  RH  046%=      5-min Rain = 0
KCR2 151342Z 22011KT 27/14 A2987 RMK A01 T02670141  RH  046%=      5-min Rain = 0
KCR2 151343Z 21011KT 27/14 A2987 RMK A01 T02680141  RH  046%=      5-min Rain = 0
KCR2 151344Z 22011KT 27/14 A2987 RMK A01 T02680142  RH  046%=      5-min Rain = 0
KCR2 151345Z 23014KT 27/14 A2987 RMK A01 T02690141  RH  045%=      5-min Rain = 0
KCR2 151346Z 23014KT 27/14 A2987 RMK A01 T02690142  RH  046%=      5-min Rain = 0
KCR2 151347Z 23014KT 27/14 A2987 RMK A01 T02680142  RH  046%=      5-min Rain = 0
KCR2 151348Z 23014KT 27/14 A2987 RMK A01 T02680140  RH  046%=      5-min Rain = 0
KCR2 151349Z 22012KT 27/14 A2987 RMK A01 T02680142  RH  046%=      5-min Rain = 0
KCR2 151350Z 21014KT 27/14 A2987 RMK A01 T02670141  RH  046%=      5-min Rain = 0
KCR2 151351Z 22012KT 27/14 A2987 RMK A01 T02680142  RH  046%=      5-min Rain = 0
KCR2 151352Z 23013KT 27/14 A2987 RMK A01 T02690144  RH  046%=      5-min Rain = 0
KCR2 151353Z 23013KT 27/14 A2987 RMK A01 T02700144  RH  046%=      5-min Rain = 0
KCR2 151354Z 23013KT 27/14 A2987 RMK A01 T02700144  RH  046%=      5-min Rain = 0
KCR2 151355Z 22011KT 27/15 A2987 RMK A01 T02700145  RH  046%=      5-min Rain = 0
KCR2 151356Z 22012KT 27/15 A2987 RMK A01 T02710145  RH  046%=      5-min Rain = 0
KCR2 151357Z 24012KT 27/15 A2987 RMK A01 T02710145  RH  046%=      5-min Rain = 0
KCR2 151358Z 23013KT 27/15 A2987 RMK A01 T02720146  RH  046%=      5-min Rain = 0
KCR2 151359Z 23015KT 27/14 A2987 RMK A01 T02720144  RH  046%=      5-min Rain = 0
KCR2 151400Z 24014KT 27/15 A2987 RMK A01 T02720145  RH  046%=      5-min Rain = 0
KCR2 151401Z 23012KT 27/14 A2987 RMK A01 T02710144  RH  046%=      5-min Rain = 0
KCR2 151402Z 23014KT 27/15 A2987 RMK A01 T02710145  RH  046%=      5-min Rain = 0
KCR2 151403Z 24015KT 27/15 A2987 RMK A01 T02720145  RH  046%=      5-min Rain = 0
KCR2 151404Z 24014KT 27/15 A2987 RMK A01 T02710145  RH  046%=      5-min Rain = 0
KCR2 151405Z 24013KT 27/15 A2987 RMK A01 T02710146  RH  046%=      5-min Rain = 0
KCR2 151406Z 23012KT 27/15 A2987 RMK A01 T02720148  RH  047%=      5-min Rain = 0
KCR2 151407Z 23013KT 27/15 A2987 RMK A01 T02730147  RH  046%=      5-min Rain = 0
KCR2 151408Z 24013KT 27/15 A2987 RMK A01 T02730146  RH  046%=      5-min Rain = 0
KCR2 151409Z 24011KT 27/15 A2987 RMK A01 T02730148  RH  046%=      5-min Rain = 0
KCR2 151410Z 23012KT 27/15 A2987 RMK A01 T02740150  RH  046%=      5-min Rain = 0
KCR2 151411Z 24012KT 28/15 A2987 RMK A01 T02750149  RH  046%=      5-min Rain = 0
KCR2 151412Z 23013KT 28/15 A2987 RMK A01 T02750149  RH  046%=      5-min Rain = 0
KCR2 151413Z 23012KT 28/15 A2987 RMK A01 T02750150  RH  046%=      5-min Rain = 0
KCR2 151414Z 23014KT 28/15 A2987 RMK A01 T02750150  RH  046%=      5-min Rain = 0
KCR2 151415Z 24015KT 28/15 A2987 RMK A01 T02750148  RH  046%=      5-min Rain = 0
KCR2 151416Z 24014KT 28/15 A2987 RMK A01 T02750148  RH  046%=      5-min Rain = 0
KCR2 151417Z 23012KT 27/15 A2987 RMK A01 T02740148  RH  046%=      5-min Rain = 0
KCR2 151418Z 23011KT 28/15 A2987 RMK A01 T02760151  RH  046%=      5-min Rain = 0
KCR2 151419Z 23012KT 28/15 A2987 RMK A01 T02780152  RH  046%=      5-min Rain = 0
KCR2 151420Z 24011KT 28/15 A2987 RMK A01 T02790151  RH  046%=      5-min Rain = 0
KCR2 151421Z 24012KT 28/15 A2987 RMK A01 T02790150  RH  045%=      5-min Rain = 0
KCR2 151422Z 24013KT 28/15 A2987 RMK A01 T02780150  RH  046%=      5-min Rain = 0
KCR2 151423Z 23012KT 28/15 A2987 RMK A01 T02780152  RH  046%=      5-min Rain = 0
KCR2 151424Z 24012KT 28/15 A2987 RMK A01 T02790151  RH  046%=      5-min Rain = 0
KCR2 151425Z 24012KT 28/15 A2987 RMK A01 T02800152  RH  046%=      5-min Rain = 0
KCR2 151426Z 23011KT 28/15 A2987 RMK A01 T02800152  RH  046%=      5-min Rain = 0
KCR2 151427Z 23013KT 28/15 A2987 RMK A01 T02800151  RH  045%=      5-min Rain = 0
KCR2 151428Z 23013KT 28/15 A2987 RMK A01 T02800152  RH  046%=      5-min Rain = 0
KCR2 151429Z 24012KT 28/15 A2987 RMK A01 T02800153  RH  046%=      5-min Rain = 0
KCR2 151430Z 24012KT 28/15 A2987 RMK A01 T02800153  RH  046%=      5-min Rain = 0
KCR2 151431Z 24011G16KT 28/15 A2987 RMK A01 T02810154  RH  046%=      5-min Rain = 0
KCR2 151432Z 24012KT 28/15 A2987 RMK A01 T02820153  RH  045%=      5-min Rain = 0
KCR2 151433Z 24013KT 28/15 A2987 RMK A01 T02820153  RH  045%=      5-min Rain = 0
KCR2 151434Z 23013KT 28/15 A2987 RMK A01 T02820154  RH  046%=      5-min Rain = 0
KCR2 151435Z 23013KT 28/15 A2987 RMK A01 T02830154  RH  046%=      5-min Rain = 0
KCR2 151436Z 23012KT 28/15 A2987 RMK A01 T02830153  RH  045%=      5-min Rain = 0
KCR2 151437Z 24012KT 28/15 A2987 RMK A01 T02830153  RH  045%=      5-min Rain = 0
KCR2 151438Z 24011KT 28/16 A2987 RMK A01 T02840155  RH  045%=      5-min Rain = 0
KCR2 151439Z 23012KT 29/16 A2987 RMK A01 T02860156  RH  045%=      5-min Rain = 0
KCR2 151440Z 23013KT 29/16 A2987 RMK A01 T02860155  RH  045%=      5-min Rain = 0
KCR2 151441Z 24012KT 29/16 A2987 RMK A01 T02860156  RH  045%=      5-min Rain = 0
KCR2 151442Z 25011KT 29/16 A2987 RMK A01 T02870156  RH  045%=      5-min Rain = 0
KCR2 151443Z 24013KT 29/16 A2987 RMK A01 T02880155  RH  044%=      5-min Rain = 0
KCR2 151444Z 24014KT 29/15 A2987 RMK A01 T02870154  RH  044%=      5-min Rain = 0
KCR2 151445Z 24013KT 29/15 A2987 RMK A01 T02860154  RH  045%=      5-min Rain = 0
KCR2 151446Z 24012KT 29/16 A2987 RMK A01 T02860155  RH  045%=      5-min Rain = 0
KCR2 151447Z 24013KT 29/16 A2987 RMK A01 T02870155  RH  045%=      5-min Rain = 0
KCR2 151448Z 25012KT 29/16 A2987 RMK A01 T02870155  RH  045%=      5-min Rain = 0
KCR2 151449Z 24011KT 29/16 A2987 RMK A01 T02880156  RH  045%=      5-min Rain = 0
KCR2 151450Z 24010KT 29/16 A2987 RMK A01 T02900157  RH  044%=      5-min Rain = 0
KCR2 151451Z 24011KT 29/16 A2987 RMK A01 T02910158  RH  045%=      5-min Rain = 0
KCR2 151452Z 24011KT 29/16 A2987 RMK A01 T02920158  RH  044%=      5-min Rain = 0
KCR2 151453Z 23012KT 29/16 A2987 RMK A01 T02920159  RH  044%=      5-min Rain = 0
KCR2 151454Z 23013KT 29/16 A2987 RMK A01 T02920158  RH  044%=      5-min Rain = 0
KCR2 151455Z 23013KT 29/16 A2987 RMK A01 T02920158  RH  044%=      5-min Rain = 0
KCR2 151456Z 24013KT 29/16 A2987 RMK A01 T02920158  RH  044%=      5-min Rain = 0
KCR2 151457Z 24014KT 29/16 A2987 RMK A01 T02920157  RH  044%=      5-min Rain = 0
KCR2 151458Z 25012KT 29/16 A2987 RMK A01 T02910157  RH  044%=      5-min Rain = 0
KCR2 151459Z 23010KT 29/16 A2987 RMK A01 T02920158  RH  044%=      5-min Rain = 0
KCR2 151500Z 23011KT 29/16 A2987 RMK A01 T02930159  RH  044%=      5-min Rain = 0
KCR2 151501Z 24010KT 30/16 A2987 RMK A01 T02950161  RH  044%=      5-min Rain = 0
KCR2 151502Z 24010KT 30/16 A2987 RMK A01 T02970162  RH  044%=      5-min Rain = 0
KCR2 151503Z 24011KT 30/16 A2987 RMK A01 T02990160  RH  043%=      5-min Rain = 0
KCR2 151504Z 24015KT 30/16 A2987 RMK A01 T03000160  RH  043%=      5-min Rain = 0
KCR2 151505Z 24015KT 30/16 A2987 RMK A01 T03000157  RH  042%=      5-min Rain = 0
KCR2 151506Z 24012KT 30/15 A2987 RMK A01 T02980154  RH  042%=      5-min Rain = 0
KCR2 151507Z 24011KT 30/16 A2987 RMK A01 T02980157  RH  042%=      5-min Rain = 0
KCR2 151508Z 25013G18KT 30/16 A2987 RMK A01 T02990158  RH  042%=      5-min Rain = 0
KCR2 151509Z 24012KT 30/16 A2987 RMK A01 T02990159  RH  043%=      5-min Rain = 0
KCR2 151510Z 24008KT 30/16 A2987 RMK A01 T03000163  RH  044%=      5-min Rain = 0
KCR2 151511Z 24009KT 30/16 A2987 RMK A01 T03020164  RH  043%=      5-min Rain = 0
KCR2 151512Z 25012KT 30/16 A2987 RMK A01 T03040158  RH  041%=      5-min Rain = 0
KCR2 151513Z 24011KT 30/16 A2987 RMK A01 T03010156  RH  042%=      5-min Rain = 0
KCR2 151514Z 24010KT 30/16 A2987 RMK A01 T03000159  RH  042%=      5-min Rain = 0
KCR2 151515Z 25009KT 30/16 A2987 RMK A01 T03000160  RH  043%=      5-min Rain = 0
KCR2 151516Z 24008KT 30/16 A2987 RMK A01 T03030163  RH  043%=      5-min Rain = 0
KCR2 151517Z 25010KT 31/16 A2987 RMK A01 T03080162  RH  041%=      5-min Rain = 0
KCR2 151518Z 24011KT 31/16 A2987 RMK A01 T03080161  RH  041%=      5-min Rain = 0
KCR2 151519Z 24014KT 31/16 A2987 RMK A01 T03070158  RH  041%=      5-min Rain = 0
KCR2 151520Z 24011KT 31/16 A2987 RMK A01 T03050159  RH  041%=      5-min Rain = 0
KCR2 151521Z 24010KT 31/16 A2987 RMK A01 T03050159  RH  041%=      5-min Rain = 0
KCR2 151522Z 24011KT 31/16 A2987 RMK A01 T03060157  RH  041%=      5-min Rain = 0
KCR2 151523Z 25011KT 31/16 A2987 RMK A01 T03070158  RH  041%=      5-min Rain = 0
KCR2 151524Z 27013KT 31/16 A2987 RMK A01 T03080156  RH  040%=      5-min Rain = 0
KCR2 151525Z 24012KT 31/16 A2987 RMK A01 T03090157  RH  040%=      5-min Rain = 0
KCR2 151526Z 24012KT 31/16 A2987 RMK A01 T03100157  RH  040%=      5-min Rain = 0
KCR2 151527Z 24012KT 31/15 A2987 RMK A01 T03110154  RH  039%=      5-min Rain = 0
KCR2 151528Z 24014KT 31/15 A2987 RMK A01 T03100153  RH  039%=      5-min Rain = 0
KCR2 151529Z 25013KT 31/15 A2987 RMK A01 T03090154  RH  039%=      5-min Rain = 0
KCR2 151530Z 26012KT 31/16 A2987 RMK A01 T03100157  RH  040%=      5-min Rain = 0
KCR2 151531Z 25011KT 31/16 A2987 RMK A01 T03130155  RH  038%=      5-min Rain = 0
KCR2 151532Z 24011KT 31/16 A2987 RMK A01 T03140157  RH  039%=      5-min Rain = 0
KCR2 151533Z 25012KT 31/15 A2987 RMK A01 T03140154  RH  038%=      5-min Rain = 0
KCR2 151534Z 24015KT 31/15 A2987 RMK A01 T03140154  RH  038%=      5-min Rain = 0
KCR2 151535Z 23014KT 31/15 A2987 RMK A01 T03130153  RH  038%=      5-min Rain = 0
KCR2 151536Z 23014KT 31/15 A2987 RMK A01 T03110154  RH  038%=      5-min Rain = 0
KCR2 151537Z 24011KT 31/15 A2987 RMK A01 T03110154  RH  039%=      5-min Rain = 0
KCR2 151538Z 24014KT 31/16 A2987 RMK A01 T03140155  RH  038%=      5-min Rain = 0
KCR2 151539Z 24013KT 32/15 A2987 RMK A01 T03150153  RH  038%=      5-min Rain = 0
KCR2 151540Z 25013KT 32/16 A2987 RMK A01 T03150156  RH  038%=      5-min Rain = 0
KCR2 151541Z 25011KT 32/15 A2987 RMK A01 T03160150  RH  037%=      5-min Rain = 0
KCR2 151542Z 26011KT 32/15 A2987 RMK A01 T03160153  RH  037%=      5-min Rain = 0
KCR2 151543Z 27011KT 32/15 A2987 RMK A01 T03170149  RH  036%=      5-min Rain = 0
KCR2 151544Z 25011KT 32/15 A2987 RMK A01 T03180153  RH  037%=      5-min Rain = 0
KCR2 151545Z 26012KT 32/15 A2987 RMK A01 T03190154  RH  037%=      5-min Rain = 0
KCR2 151546Z 25011KT 32/15 A2987 RMK A01 T03190153  RH  037%=      5-min Rain = 0
KCR2 151547Z 25011G16KT 32/16 A2987 RMK A01 T03190155  RH  037%=      5-min Rain = 0
KCR2 151548Z 25013KT 32/15 A2987 RMK A01 T03190154  RH  037%=      5-min Rain = 0
KCR2 151549Z 25013KT 32/15 A2987 RMK A01 T03190154  RH  037%=      5-min Rain = 0
KCR2 151550Z 26013KT 32/15 A2987 RMK A01 T03180153  RH  037%=      5-min Rain = 0
KCR2 151551Z 25013KT 32/15 A2987 RMK A01 T03170153  RH  037%=      5-min Rain = 0
KCR2 151552Z 25013KT 32/15 A2987 RMK A01 T03170152  RH  037%=      5-min Rain = 0
KCR2 151553Z 26011KT 32/15 A2987 RMK A01 T03180153  RH  037%=      5-min Rain = 0
KCR2 151554Z 25012KT 32/15 A2987 RMK A01 T03180153  RH  037%=      5-min Rain = 0
KCR2 151555Z 24013KT 32/15 A2986 RMK A01 T03190153  RH  037%=      5-min Rain = 0
KCR2 151556Z 25011KT 32/15 A2987 RMK A01 T03180154  RH  037%=      5-min Rain = 0
KCR2 151557Z 25010KT 32/16 A2986 RMK A01 T03180155  RH  037%=      5-min Rain = 0
KCR2 151558Z 25011KT 32/16 A2986 RMK A01 T03180156  RH  038%=      5-min Rain = 0
KCR2 151559Z 25014KT 32/16 A2987 RMK A01 T03200157  RH  037%=      5-min Rain = 0
KCR2 151600Z 24012KT 32/16 A2986 RMK A01 T03220157  RH  037%=      5-min Rain = 0
KCR2 151601Z 25011KT 32/16 A2986 RMK A01 T03220158  RH  037%=      5-min Rain = 0
KCR2 151602Z 26010KT 32/16 A2986 RMK A01 T03210157  RH  037%=      5-min Rain = 0
KCR2 151603Z 25011KT 32/16 A2986 RMK A01 T03220157  RH  037%=      5-min Rain = 0
KCR2 151604Z 26012KT 32/16 A2986 RMK A01 T03240157  RH  037%=      5-min Rain = 0
KCR2 151605Z 26011KT 32/16 A2986 RMK A01 T03240156  RH  037%=      5-min Rain = 0
KCR2 151606Z 26011KT 33/16 A2987 RMK A01 T03250157  RH  036%=      5-min Rain = 0
KCR2 151607Z 27009KT 33/16 A2986 RMK A01 T03260155  RH  036%=      5-min Rain = 0
KCR2 151608Z 26012KT 33/16 A2986 RMK A01 T03290156  RH  035%=      5-min Rain = 0
KCR2 151609Z 25011KT 33/16 A2986 RMK A01 T03310155  RH  035%=      5-min Rain = 0
KCR2 151610Z 27012KT 33/16 A2986 RMK A01 T03320155  RH  035%=      5-min Rain = 0
KCR2 151611Z 26011KT 33/15 A2986 RMK A01 T03300152  RH  034%=      5-min Rain = 0
KCR2 151612Z 27011KT 33/15 A2986 RMK A01 T03280149  RH  034%=      5-min Rain = 0
KCR2 151613Z 26014KT 33/15 A2986 RMK A01 T03290150  RH  034%=      5-min Rain = 0
KCR2 151614Z 26015KT 33/15 A2986 RMK A01 T03300146  RH  033%=      5-min Rain = 0
KCR2 151615Z 26015KT 33/15 A2986 RMK A01 T03290148  RH  034%=      5-min Rain = 0
KCR2 151616Z 26012KT 33/15 A2986 RMK A01 T03290149  RH  034%=      5-min Rain = 0
KCR2 151617Z 26010KT 33/15 A2986 RMK A01 T03300149  RH  034%=      5-min Rain = 0
KCR2 151618Z 25013KT 33/15 A2986 RMK A01 T03290149  RH  034%=      5-min Rain = 0
KCR2 151619Z 26015KT 33/15 A2986 RMK A01 T03320147  RH  033%=      5-min Rain = 0
KCR2 151620Z 28012KT 33/15 A2986 RMK A01 T03330145  RH  032%=      5-min Rain = 0
KCR2 151621Z 28010KT 33/15 A2986 RMK A01 T03320145  RH  032%=      5-min Rain = 0
KCR2 151622Z 27011KT 33/15 A2986 RMK A01 T03330147  RH  033%=      5-min Rain = 0
KCR2 151623Z 28013KT 33/15 A2986 RMK A01 T03340147  RH  033%=      5-min Rain = 0
KCR2 151624Z 28014KT 34/14 A2986 RMK A01 T03370143  RH  031%=      5-min Rain = 0
KCR2 151625Z 28012KT 34/14 A2986 RMK A01 T03360144  RH  031%=      5-min Rain = 0
KCR2 151626Z 25009KT 34/14 A2986 RMK A01 T03350141  RH  031%=      5-min Rain = 0
KCR2 151627Z 29011KT 34/14 A2986 RMK A01 T03360143  RH  031%=      5-min Rain = 0
KCR2 151628Z 29012KT 34/15 A2986 RMK A01 T03390146  RH  031%=      5-min Rain = 0
KCR2 151629Z 29011KT 34/15 A2986 RMK A01 T03400147  RH  031%=      5-min Rain = 0
KCR2 151630Z 30011KT 34/15 A2986 RMK A01 T03440149  RH  031%=      5-min Rain = 0
KCR2 151631Z 30011KT 35/15 A2986 RMK A01 T03450146  RH  030%=      5-min Rain = 0
KCR2 151632Z 29012KT 35/14 A2986 RMK A01 T03450142  RH  030%=      5-min Rain = 0
KCR2 151633Z 29010KT 34/14 A2986 RMK A01 T03430136  RH  029%=      5-min Rain = 0
KCR2 151634Z 28011KT 34/14 A2986 RMK A01 T03410137  RH  029%=      5-min Rain = 0
KCR2 151635Z 26011KT 34/14 A2986 RMK A01 T03400139  RH  030%=      5-min Rain = 0
KCR2 151636Z 28011KT 34/14 A2986 RMK A01 T03410141  RH  030%=      5-min Rain = 0
KCR2 151637Z 27010KT 34/14 A2986 RMK A01 T03410139  RH  030%=      5-min Rain = 0
KCR2 151638Z 26011KT 34/14 A2986 RMK A01 T03400141  RH  030%=      5-min Rain = 0
KCR2 151639Z 27010KT 34/14 A2986 RMK A01 T03410135  RH  029%=      5-min Rain = 0
KCR2 151640Z 28011KT 34/13 A2986 RMK A01 T03410131  RH  028%=      5-min Rain = 0
KCR2 151641Z 29013KT 34/13 A2986 RMK A01 T03430125  RH  027%=      5-min Rain = 0
KCR2 151642Z 26012KT 35/13 A2986 RMK A01 T03470129  RH  027%=      5-min Rain = 0
KCR2 151643Z 27012KT 35/13 A2986 RMK A01 T03500129  RH  026%=      5-min Rain = 0
KCR2 151644Z 27014KT 35/12 A2986 RMK A01 T03500124  RH  026%=      5-min Rain = 0
KCR2 151645Z 28020KT 35/10 A2986 RMK A01 T03500103  RH  022%=      5-min Rain = 0
KCR2 151646Z 29012G19KT 35/10 A2986 RMK A01 T03520095  RH  021%=      5-min Rain = 0
KCR2 151647Z 27014KT 35/10 A2986 RMK A01 T03540100  RH  021%=      5-min Rain = 0
KCR2 151648Z 28015KT 36/10 A2986 RMK A01 T03550097  RH  021%=      5-min Rain = 0
KCR2 151649Z 29015KT 36/10 A2986 RMK A01 T03550097  RH  021%=      5-min Rain = 0
KCR2 151650Z 30012KT 36/10 A2986 RMK A01 T03590098  RH  021%=      5-min Rain = 0
KCR2 151651Z 28015G20KT 36/10 A2986 RMK A01 T03610096  RH  020%=      5-min Rain = 0
KCR2 151652Z 27016KT 36/09 A2986 RMK A01 T03600089  RH  019%=      5-min Rain = 0
KCR2 151653Z 27016KT 36/09 A2986 RMK A01 T03570089  RH  019%=      5-min Rain = 0
KCR2 151654Z 27016KT 36/09 A2986 RMK A01 T03560089  RH  020%=      5-min Rain = 0
KCR2 151655Z 27013KT 36/09 A2986 RMK A01 T03560091  RH  020%=      5-min Rain = 0
KCR2 151656Z 28015KT 36/09 A2986 RMK A01 T03590093  RH  020%=      5-min Rain = 0
KCR2 151657Z 28014KT 36/09 A2986 RMK A01 T03610088  RH  019%=      5-min Rain = 0
KCR2 151658Z 29014KT 36/09 A2985 RMK A01 T03620085  RH  018%=      5-min Rain = 0
KCR2 151659Z 28015KT 37/09 A2986 RMK A01 T03660089  RH  019%=      5-min Rain = 0
KCR2 151700Z 28015KT 37/09 A2986 RMK A01 T03670088  RH  018%=      5-min Rain = 0
KCR2 151701Z 29013KT 37/09 A2986 RMK A01 T03680086  RH  018%=      5-min Rain = 0
KCR2 151702Z 29011KT 37/09 A2986 RMK A01 T03670085  RH  018%=      5-min Rain = 0
KCR2 151703Z 28014G19KT 37/08 A2986 RMK A01 T03670083  RH  018%=      5-min Rain = 0
KCR2 151704Z 28018KT 37/07 A2986 RMK A01 T03680068  RH  016%=      5-min Rain = 0
KCR2 151705Z 28017G22KT 37/06 A2986 RMK A01 T03660064  RH  016%=      5-min Rain = 0
KCR2 151706Z 27014G19KT 36/07 A2986 RMK A01 T03640070  RH  016%=      5-min Rain = 0
KCR2 151707Z 29017KT 37/08 A2986 RMK A01 T03650075  RH  017%=      5-min Rain = 0
KCR2 151708Z 28018KT 37/08 A2986 RMK A01 T03670076  RH  017%=      5-min Rain = 0
KCR2 151709Z 29018KT 37/07 A2986 RMK A01 T03660074  RH  017%=      5-min Rain = 0
KCR2 151710Z 29016KT 37/07 A2986 RMK A01 T03670072  RH  016%=      5-min Rain = 0
KCR2 151711Z 29015KT 37/08 A2986 RMK A01 T03680076  RH  017%=      5-min Rain = 0
KCR2 151712Z 28013G18KT 37/08 A2986 RMK A01 T03660078  RH  017%=      5-min Rain = 0
KCR2 151713Z 29016KT 37/08 A2986 RMK A01 T03670079  RH  017%=      5-min Rain = 0
KCR2 151714Z 29015KT 37/08 A2985 RMK A01 T03670075  RH  017%=      5-min Rain = 0
KCR2 151715Z 28012KT 37/08 A2986 RMK A01 T03660078  RH  017%=      5-min Rain = 0
KCR2 151716Z 28015G22KT 37/08 A2985 RMK A01 T03720081  RH  017%=      5-min Rain = 0
KCR2 151717Z 29016KT 37/07 A2985 RMK A01 T03740071  RH  016%=      5-min Rain = 0
KCR2 151718Z 28017KT 37/07 A2986 RMK A01 T03720071  RH  016%=      5-min Rain = 0
KCR2 151719Z 28016KT 37/07 A2986 RMK A01 T03710070  RH  016%=      5-min Rain = 0
KCR2 151720Z 28014KT 37/07 A2986 RMK A01 T03680069  RH  016%=      5-min Rain = 0
KCR2 151721Z 29013KT 36/07 A2985 RMK A01 T03630070  RH  017%=      5-min Rain = 0
KCR2 151722Z 27014KT 36/07 A2985 RMK A01 T03640072  RH  017%=      5-min Rain = 0
KCR2 151723Z 27015KT 37/07 A2985 RMK A01 T03660071  RH  016%=      5-min Rain = 0
KCR2 151724Z 27013KT 37/07 A2985 RMK A01 T03660070  RH  016%=      5-min Rain = 0
KCR2 151725Z 29018KT 37/07 A2986 RMK A01 T03680068  RH  016%=      5-min Rain = 0
KCR2 151726Z 29014KT 37/07 A2985 RMK A01 T03680065  RH  016%=      5-min Rain = 0
KCR2 151727Z 30015KT 37/07 A2985 RMK A01 T03660068  RH  016%=      5-min Rain = 0
KCR2 151728Z 30014KT 37/07 A2985 RMK A01 T03680073  RH  016%=      5-min Rain = 0
KCR2 151729Z 30013KT 37/07 A2985 RMK A01 T03710070  RH  016%=      5-min Rain = 0
KCR2 151730Z 31017KT 37/06 A2985 RMK A01 T03740063  RH  015%=      5-min Rain = 0
KCR2 151731Z 30014KT 37/07 A2985 RMK A01 T03730065  RH  015%=      5-min Rain = 0
KCR2 151732Z 28015G23KT 37/07 A2985 RMK A01 T03740067  RH  015%=      5-min Rain = 0
KCR2 151733Z 29018KT 38/06 A2985 RMK A01 T03750060  RH  014%=      5-min Rain = 0
KCR2 151734Z 30015KT 37/06 A2985 RMK A01 T03740061  RH  015%=      5-min Rain = 0
KCR2 151735Z 29013KT 38/07 A2985 RMK A01 T03750068  RH  015%=      5-min Rain = 0
KCR2 151736Z 30016KT 38/07 A2985 RMK A01 T03770070  RH  015%=      5-min Rain = 0
KCR2 151737Z 30016KT 38/06 A2985 RMK A01 T03770063  RH  015%=      5-min Rain = 0
KCR2 151738Z 30016KT 37/06 A2985 RMK A01 T03720055  RH  014%=      5-min Rain = 0
KCR2 151739Z 29015KT 37/06 A2985 RMK A01 T03700060  RH  015%=      5-min Rain = 0
KCR2 151740Z 29016KT 37/06 A2985 RMK A01 T03720062  RH  015%=      5-min Rain = 0
KCR2 151741Z 29015KT 37/06 A2985 RMK A01 T03720059  RH  015%=      5-min Rain = 0
KCR2 151742Z 30015KT 37/07 A2985 RMK A01 T03720067  RH  016%=      5-min Rain = 0
KCR2 151743Z 30015KT 37/08 A2985 RMK A01 T03730075  RH  016%=      5-min Rain = 0
KCR2 151744Z 29014KT 37/08 A2985 RMK A01 T03730077  RH  017%=      5-min Rain = 0
KCR2 151745Z 29013KT 37/08 A2985 RMK A01 T03720078  RH  017%=      5-min Rain = 0
KCR2 151746Z 29011KT 37/08 A2985 RMK A01 T03710076  RH  017%=      5-min Rain = 0
KCR2 151747Z 29013G18KT 37/08 A2985 RMK A01 T03730076  RH  016%=      5-min Rain = 0
KCR2 151748Z 29015KT 38/07 A2985 RMK A01 T03750071  RH  016%=      5-min Rain = 0
KCR2 151749Z 30013KT 38/06 A2985 RMK A01 T03750062  RH  015%=      5-min Rain = 0
KCR2 151750Z 29010KT 38/07 A2985 RMK A01 T03750065  RH  015%=      5-min Rain = 0
KCR2 151751Z 30011KT 38/07 A2985 RMK A01 T03750071  RH  016%=      5-min Rain = 0
KCR2 151752Z 31015KT 38/06 A2985 RMK A01 T03800064  RH  015%=      5-min Rain = 0
KCR2 151753Z 32013KT 38/06 A2985 RMK A01 T03770060  RH  014%=      5-min Rain = 0
KCR2 151754Z 31014KT 38/06 A2985 RMK A01 T03770064  RH  015%=      5-min Rain = 0
KCR2 151755Z 29014KT 38/07 A2985 RMK A01 T03800071  RH  015%=      5-min Rain = 0
KCR2 151756Z 29011KT 38/08 A2985 RMK A01 T03790075  RH  016%=      5-min Rain = 0
KCR2 151757Z 30012G17KT 38/08 A2984 RMK A01 T03780079  RH  016%=      5-min Rain = 0
KCR2 151758Z 29013KT 38/08 A2985 RMK A01 T03800082  RH  016%=      5-min Rain = 0
KCR2 151759Z 31010KT 38/08 A2984 RMK A01 T03780078  RH  016%=      5-min Rain = 0
KCR2 151800Z 30011G16KT 38/08 A2984 RMK A01 T03760080  RH  017%=      5-min Rain = 0
KCR2 151801Z 30011KT 38/08 A2984 RMK A01 T03780083  RH  017%=      5-min Rain = 0
KCR2 151802Z 29011KT 38/08 A2984 RMK A01 T03800083  RH  017%=      5-min Rain = 0
KCR2 151803Z 30012KT 38/08 A2984 RMK A01 T03820083  RH  016%=      5-min Rain = 0
KCR2 151804Z 28017KT 38/08 A2984 RMK A01 T03840080  RH  016%=      5-min Rain = 0
KCR2 151805Z 29016KT 38/08 A2984 RMK A01 T03790075  RH  016%=      5-min Rain = 0
KCR2 151806Z 28013KT 38/08 A2984 RMK A01 T03760077  RH  016%=      5-min Rain = 0
KCR2 151807Z 28016KT 38/08 A2984 RMK A01 T03760076  RH  016%=      5-min Rain = 0
KCR2 151808Z 28011G18KT 38/07 A2984 RMK A01 T03750074  RH  016%=      5-min Rain = 0
KCR2 151809Z 27011KT 37/07 A2984 RMK A01 T03730073  RH  016%=      5-min Rain = 0
KCR2 151810Z 27016KT 37/07 A2984 RMK A01 T03730073  RH  016%=      5-min Rain = 0
KCR2 151811Z 27013KT 38/08 A2984 RMK A01 T03760076  RH  016%=      5-min Rain = 0
KCR2 151812Z 28013KT 38/07 A2984 RMK A01 T03780073  RH  016%=      5-min Rain = 0
KCR2 151813Z 31012KT 38/07 A2984 RMK A01 T03790074  RH  016%=      5-min Rain = 0
KCR2 151814Z 31013KT 38/07 A2984 RMK A01 T03820068  RH  015%=      5-min Rain = 0
KCR2 151815Z 31013KT 38/08 A2984 RMK A01 T03810075  RH  016%=      5-min Rain = 0
KCR2 151816Z 30014G19KT 38/07 A2984 RMK A01 T03800074  RH  016%=      5-min Rain = 0
KCR2 151817Z 28014KT 38/07 A2984 RMK A01 T03760072  RH  016%=      5-min Rain = 0
KCR2 151818Z 28018KT 38/06 A2984 RMK A01 T03750062  RH  015%=      5-min Rain = 0
KCR2 151819Z 28019KT 38/06 A2985 RMK A01 T03750057  RH  014%=      5-min Rain = 0
KCR2 151820Z 28016KT 38/06 A2985 RMK A01 T03750059  RH  014%=      5-min Rain = 0
KCR2 151821Z 28016KT 38/06 A2985 RMK A01 T03750062  RH  015%=      5-min Rain = 0
KCR2 151822Z 28012KT 37/06 A2984 RMK A01 T03740060  RH  015%=      5-min Rain = 0
KCR2 151823Z 27013G18KT 37/06 A2984 RMK A01 T03730061  RH  015%=      5-min Rain = 0
KCR2 151824Z 27015KT 37/06 A2984 RMK A01 T03740060  RH  015%=      5-min Rain = 0
KCR2 151825Z 27014KT 37/06 A2984 RMK A01 T03720058  RH  015%=      5-min Rain = 0
KCR2 151826Z 27013KT 38/06 A2984 RMK A01 T03760064  RH  015%=      5-min Rain = 0
KCR2 151827Z 27015KT 38/06 A2984 RMK A01 T03790058  RH  014%=      5-min Rain = 0
KCR2 151828Z 27017KT 38/05 A2984 RMK A01 T03790053  RH  014%=      5-min Rain = 0
KCR2 151829Z 27015KT 38/05 A2984 RMK A01 T03790054  RH  014%=      5-min Rain = 0
KCR2 151830Z 26017KT 38/05 A2984 RMK A01 T03770052  RH  014%=      5-min Rain = 0
KCR2 151831Z 27015KT 38/05 A2984 RMK A01 T03760051  RH  014%=      5-min Rain = 0
KCR2 151832Z 28016KT 38/05 A2984 RMK A01 T03790050  RH  013%=      5-min Rain = 0
KCR2 151833Z 27011KT 38/05 A2984 RMK A01 T03780049  RH  013%=      5-min Rain = 0
KCR2 151834Z 26012KT 38/05 A2984 RMK A01 T03790047  RH  013%=      5-min Rain = 0
KCR2 151835Z 27012KT 38/05 A2984 RMK A01 T03810047  RH  013%=      5-min Rain = 0
KCR2 151836Z 28015KT 38/05 A2984 RMK A01 T03830047  RH  013%=      5-min Rain = 0
KCR2 151837Z 28015KT 38/04 A2984 RMK A01 T03840038  RH  012%=      5-min Rain = 0
KCR2 151838Z 30011KT 38/03 A2984 RMK A01 T03820032  RH  011%=      5-min Rain = 0
KCR2 151839Z 30012G18KT 38/04 A2984 RMK A01 T03820036  RH  012%=      5-min Rain = 0
KCR2 151840Z 28014KT 38/04 A2984 RMK A01 T03820037  RH  012%=      5-min Rain = 0
KCR2 151841Z 28014KT 38/05 A2984 RMK A01 T03820048  RH  013%=      5-min Rain = 0
KCR2 151842Z 30014KT 38/05 A2984 RMK A01 T03820054  RH  013%=      5-min Rain = 0
KCR2 151843Z 29014KT 38/05 A2984 RMK A01 T03820051  RH  013%=      5-min Rain = 0
KCR2 151844Z 28016KT 38/06 A2983 RMK A01 T03810055  RH  014%=      5-min Rain = 0
KCR2 151845Z 30013G20KT 38/06 A2984 RMK A01 T03820055  RH  013%=      5-min Rain = 0
KCR2 151846Z 30012KT 38/06 A2983 RMK A01 T03820057  RH  014%=      5-min Rain = 0
KCR2 151847Z 31010KT 38/06 A2983 RMK A01 T03840056  RH  013%=      5-min Rain = 0
KCR2 151848Z 29011KT 39/06 A2983 RMK A01 T03860058  RH  014%=      5-min Rain = 0
KCR2 151849Z 27011KT 39/06 A2983 RMK A01 T03860057  RH  013%=      5-min Rain = 0
KCR2 151850Z 29013KT 39/05 A2983 RMK A01 T03860053  RH  013%=      5-min Rain = 0
KCR2 151851Z 26014KT 38/05 A2983 RMK A01 T03840048  RH  013%=      5-min Rain = 0
KCR2 151852Z 26013G18KT 38/05 A2983 RMK A01 T03820047  RH  013%=      5-min Rain = 0
KCR2 151853Z 27018G25KT 38/05 A2983 RMK A01 T03830049  RH  013%=      5-min Rain = 0
KCR2 151854Z 28016G21KT 38/05 A2983 RMK A01 T03830048  RH  013%=      5-min Rain = 0
KCR2 151855Z 28017KT 38/04 A2983 RMK A01 T03840043  RH  012%=      5-min Rain = 0
KCR2 151856Z 27016KT 39/04 A2983 RMK A01 T03850043  RH  012%=      5-min Rain = 0
KCR2 151857Z 27015KT 38/04 A2983 RMK A01 T03830041  RH  012%=      5-min Rain = 0
KCR2 151858Z 25016KT 38/04 A2983 RMK A01 T03810043  RH  013%=      5-min Rain = 0
KCR2 151859Z 27014G19KT 38/04 A2983 RMK A01 T03830044  RH  012%=      5-min Rain = 0
KCR2 151900Z 25017KT 38/04 A2983 RMK A01 T03830041  RH  012%=      5-min Rain = 0
KCR2 151901Z 27016KT 38/04 A2983 RMK A01 T03830036  RH  012%=      5-min Rain = 0
KCR2 151902Z 28015KT 38/05 A2983 RMK A01 T03830048  RH  013%=      5-min Rain = 0
KCR2 151903Z 26016KT 39/05 A2983 RMK A01 T03860046  RH  012%=      5-min Rain = 0
KCR2 151904Z 26015KT 38/04 A2983 RMK A01 T03840044  RH  012%=      5-min Rain = 0
KCR2 151905Z 26014KT 38/05 A2983 RMK A01 T03840046  RH  013%=      5-min Rain = 0
KCR2 151906Z 26015KT 38/05 A2983 RMK A01 T03810050  RH  013%=      5-min Rain = 0
KCR2 151907Z 28009G14KT 38/05 A2983 RMK A01 T03800050  RH  013%=      5-min Rain = 0
KCR2 151908Z 29009G15KT 38/05 A2983 RMK A01 T03820051  RH  013%=      5-min Rain = 0
KCR2 151909Z 27014G19KT 39/05 A2983 RMK A01 T03870051  RH  013%=      5-min Rain = 0
KCR2 151910Z 30016KT 39/05 A2983 RMK A01 T03910047  RH  012%=      5-min Rain = 0
KCR2 151911Z 29016KT 39/05 A2983 RMK A01 T03900049  RH  012%=      5-min Rain = 0
KCR2 151912Z 29010KT 39/05 A2983 RMK A01 T03880052  RH  013%=      5-min Rain = 0
KCR2 151913Z 29012KT 39/05 A2983 RMK A01 T03900053  RH  013%=      5-min Rain = 0
KCR2 151914Z 27013G19KT 39/05 A2983 RMK A01 T03910046  RH  012%=      5-min Rain = 0
KCR2 151915Z 26016KT 39/03 A2983 RMK A01 T03890030  RH  011%=      5-min Rain = 0
KCR2 151916Z 26016KT 39/03 A2983 RMK A01 T03860034  RH  011%=      5-min Rain = 0
KCR2 151917Z 27015KT 39/04 A2983 RMK A01 T03880037  RH  012%=      5-min Rain = 0
KCR2 151918Z 27012G17KT 39/04 A2983 RMK A01 T03880037  RH  012%=      5-min Rain = 0
KCR2 151919Z 28011KT 39/04 A2983 RMK A01 T03880041  RH  012%=      5-min Rain = 0
KCR2 151920Z 27006KT 39/04 A2983 RMK A01 T03870038  RH  012%=      5-min Rain = 0
KCR2 151921Z 27011KT 39/04 A2982 RMK A01 T03850041  RH  012%=      5-min Rain = 0
KCR2 151922Z 27011KT 39/04 A2983 RMK A01 T03860043  RH  012%=      5-min Rain = 0
KCR2 151923Z 29010G15KT 39/05 A2982 RMK A01 T03890045  RH  012%=      5-min Rain = 0
KCR2 151924Z 29013G18KT 39/04 A2983 RMK A01 T03930043  RH  012%=      5-min Rain = 0
KCR2 151925Z 31015KT 39/04 A2983 RMK A01 T03940043  RH  012%=      5-min Rain = 0
KCR2 151926Z 30013KT 40/04 A2983 RMK A01 T03950042  RH  012%=      5-min Rain = 0
KCR2 151927Z 30009KT 39/04 A2983 RMK A01 T03900043  RH  012%=      5-min Rain = 0
KCR2 151928Z 30009KT 39/05 A2982 RMK A01 T03890046  RH  012%=      5-min Rain = 0
KCR2 151929Z 30006KT 39/05 A2982 RMK A01 T03870046  RH  012%=      5-min Rain = 0
KCR2 151930Z 30007KT 39/05 A2982 RMK A01 T03850046  RH  012%=      5-min Rain = 0
KCR2 151931Z 33008KT 39/05 A2982 RMK A01 T03860045  RH  012%=      5-min Rain = 0
KCR2 151932Z 32008KT 39/04 A2982 RMK A01 T03870043  RH  012%=      5-min Rain = 0
KCR2 151933Z 30007KT 39/05 A2982 RMK A01 T03880046  RH  012%=      5-min Rain = 0
KCR2 151934Z 28006KT 39/05 A2982 RMK A01 T03910045  RH  012%=      5-min Rain = 0
KCR2 151935Z 28008KT 39/05 A2982 RMK A01 T03900046  RH  012%=      5-min Rain = 0
KCR2 151936Z 27010KT 39/05 A2982 RMK A01 T03880046  RH  012%=      5-min Rain = 0
KCR2 151937Z 28006G11KT 38/04 A2982 RMK A01 T03840042  RH  012%=      5-min Rain = 0
KCR2 151938Z 28010KT 38/05 A2982 RMK A01 T03830045  RH  013%=      5-min Rain = 0
KCR2 151939Z 29011KT 39/05 A2982 RMK A01 T03850046  RH  012%=      5-min Rain = 0
KCR2 151940Z 27015KT 39/05 A2982 RMK A01 T03870047  RH  012%=      5-min Rain = 0
KCR2 151941Z 27010KT 39/04 A2982 RMK A01 T03850044  RH  012%=      5-min Rain = 0
KCR2 151942Z 26013KT 39/05 A2982 RMK A01 T03870046  RH  012%=      5-min Rain = 0
KCR2 151943Z 25010KT 39/04 A2982 RMK A01 T03880043  RH  012%=      5-min Rain = 0
KCR2 151944Z 25007KT 39/04 A2982 RMK A01 T03860044  RH  012%=      5-min Rain = 0
KCR2 151945Z 26010KT 39/05 A2982 RMK A01 T03860045  RH  012%=      5-min Rain = 0
KCR2 151946Z 25010KT 38/04 A2982 RMK A01 T03840044  RH  012%=      5-min Rain = 0
KCR2 151947Z 25007KT 38/04 A2981 RMK A01 T03800043  RH  013%=      5-min Rain = 0
KCR2 151948Z 25009KT 38/05 A2981 RMK A01 T03800046  RH  013%=      5-min Rain = 0
KCR2 151949Z 28011KT 38/05 A2982 RMK A01 T03840049  RH  013%=      5-min Rain = 0
KCR2 151950Z 27010KT 39/05 A2981 RMK A01 T03890047  RH  012%=      5-min Rain = 0
KCR2 151951Z 28008KT 39/05 A2981 RMK A01 T03890048  RH  012%=      5-min Rain = 0
KCR2 151952Z 26012KT 39/05 A2981 RMK A01 T03910050  RH  012%=      5-min Rain = 0
KCR2 151953Z 27009KT 39/05 A2981 RMK A01 T03910047  RH  012%=      5-min Rain = 0
KCR2 151954Z 28016KT 39/05 A2981 RMK A01 T03940050  RH  012%=      5-min Rain = 0
KCR2 151955Z 28016KT 39/04 A2982 RMK A01 T03930044  RH  012%=      5-min Rain = 0
KCR2 151956Z 29014KT 39/05 A2982 RMK A01 T03890046  RH  012%=      5-min Rain = 0
KCR2 151957Z 31013KT 39/05 A2981 RMK A01 T03880045  RH  012%=      5-min Rain = 0
KCR2 151958Z 30013KT 39/05 A2981 RMK A01 T03890045  RH  012%=      5-min Rain = 0
KCR2 151959Z 30012KT 39/05 A2981 RMK A01 T03900047  RH  012%=      5-min Rain = 0
KCR2 152000Z 28011KT 39/05 A2981 RMK A01 T03930048  RH  012%=      5-min Rain = 0
KCR2 152001Z 28010KT 40/05 A2981 RMK A01 T03970053  RH  012%=      5-min Rain = 0
KCR2 152002Z 27013KT 40/05 A2981 RMK A01 T04000052  RH  012%=      5-min Rain = 0
KCR2 152003Z 27015KT 40/05 A2981 RMK A01 T03960047  RH  012%=      5-min Rain = 0
KCR2 152004Z 27012G17KT 39/05 A2981 RMK A01 T03890048  RH  012%=      5-min Rain = 0
KCR2 152005Z 27016KT 39/05 A2981 RMK A01 T03920053  RH  013%=      5-min Rain = 0
KCR2 152006Z 26014KT 39/05 A2981 RMK A01 T03920048  RH  012%=      5-min Rain = 0
KCR2 152007Z 26015KT 39/05 A2981 RMK A01 T03900049  RH  012%=      5-min Rain = 0
KCR2 152008Z 26016KT 39/05 A2981 RMK A01 T03890049  RH  012%=      5-min Rain = 0
KCR2 152009Z 25013KT 39/05 A2981 RMK A01 T03860047  RH  012%=      5-min Rain = 0
KCR2 152010Z 26016KT 39/05 A2981 RMK A01 T03850049  RH  013%=      5-min Rain = 0
KCR2 152011Z 26015KT 39/05 A2981 RMK A01 T03870051  RH  013%=      5-min Rain = 0
KCR2 152012Z 26014KT 39/05 A2981 RMK A01 T03870052  RH  013%=      5-min Rain = 0
KCR2 152013Z 24014G19KT 39/06 A2981 RMK A01 T03900056  RH  013%=      5-min Rain = 0
KCR2 152014Z 25015KT 39/06 A2981 RMK A01 T03930055  RH  013%=      5-min Rain = 0
KCR2 152015Z 23014KT 39/06 A2981 RMK A01 T03940055  RH  013%=      5-min Rain = 0
KCR2 152016Z 23013KT 39/06 A2981 RMK A01 T03930058  RH  013%=      5-min Rain = 0
KCR2 152017Z 23013KT 39/06 A2981 RMK A01 T03930055  RH  013%=      5-min Rain = 0
KCR2 152018Z 23013KT 39/06 A2981 RMK A01 T03930056  RH  013%=      5-min Rain = 0
KCR2 152019Z 23013KT 39/05 A2981 RMK A01 T03920052  RH  013%=      5-min Rain = 0
KCR2 152020Z 23013KT 39/06 A2981 RMK A01 T03900055  RH  013%=      5-min Rain = 0
KCR2 152021Z 23011KT 39/06 A2981 RMK A01 T03910055  RH  013%=      5-min Rain = 0
KCR2 152022Z 23010KT 39/06 A2981 RMK A01 T03910058  RH  013%=      5-min Rain = 0
KCR2 152023Z 24010KT 39/06 A2981 RMK A01 T03940057  RH  013%=      5-min Rain = 0
KCR2 152024Z 23009KT 39/05 A2981 RMK A01 T03940051  RH  012%=      5-min Rain = 0
KCR2 152025Z 23006KT 39/06 A2981 RMK A01 T03910055  RH  013%=      5-min Rain = 0
KCR2 152026Z 23006KT 39/05 A2981 RMK A01 T03900054  RH  013%=      5-min Rain = 0
KCR2 152027Z 27006KT 39/05 A2981 RMK A01 T03880052  RH  013%=      5-min Rain = 0
KCR2 152028Z 28010KT 39/06 A2981 RMK A01 T03900057  RH  013%=      5-min Rain = 0
KCR2 152029Z 27009KT 39/06 A2981 RMK A01 T03930055  RH  013%=      5-min Rain = 0
KCR2 152030Z 27008KT 39/06 A2981 RMK A01 T03890055  RH  013%=      5-min Rain = 0
KCR2 152031Z 24011KT 39/06 A298 RMK A01 T03900062  RH  014%=      5-min Rain = 0
KCR2 152032Z 25011KT 39/06 A298 RMK A01 T03910058  RH  013%=      5-min Rain = 0
KCR2 152033Z 24009KT 39/06 A298 RMK A01 T03880057  RH  013%=      5-min Rain = 0
KCR2 152034Z 25013KT 39/06 A298 RMK A01 T03890061  RH  014%=      5-min Rain = 0
KCR2 152035Z 24013KT 39/06 A298 RMK A01 T03940061  RH  013%=      5-min Rain = 0
KCR2 152036Z 26012KT 40/06 A298 RMK A01 T03980063  RH  013%=      5-min Rain = 0
KCR2 152037Z 26012KT 40/06 A298 RMK A01 T04010058  RH  012%=      5-min Rain = 0
KCR2 152038Z 25015KT 40/06 A298 RMK A01 T03970058  RH  013%=      5-min Rain = 0
KCR2 152039Z 26012G18KT 40/06 A298 RMK A01 T03980062  RH  013%=      5-min Rain = 0
KCR2 152040Z 27014KT 40/06 A298 RMK A01 T04010057  RH  012%=      5-min Rain = 0
KCR2 152041Z 28015KT 40/06 A298 RMK A01 T03990057  RH  012%=      5-min Rain = 0
KCR2 152042Z 28013KT 40/05 A298 RMK A01 T03970054  RH  012%=      5-min Rain = 0
KCR2 152043Z 28012KT 39/05 A298 RMK A01 T03930053  RH  013%=      5-min Rain = 0
KCR2 152044Z 28009KT 39/06 A298 RMK A01 T03910055  RH  013%=      5-min Rain = 0
KCR2 152045Z 29012G17KT 39/06 A298 RMK A01 T03940056  RH  013%=      5-min Rain = 0
KCR2 152046Z 29012KT 39/05 A298 RMK A01 T03940054  RH  013%=      5-min Rain = 0
KCR2 152047Z 31008G13KT 39/05 A298 RMK A01 T03910054  RH  013%=      5-min Rain = 0
KCR2 152048Z 33009KT 39/05 A298 RMK A01 T03930054  RH  013%=      5-min Rain = 0
KCR2 152049Z 31010KT 39/06 A298 RMK A01 T03920055  RH  013%=      5-min Rain = 0
KCR2 152050Z 30007KT 40/06 A298 RMK A01 T03960055  RH  013%=      5-min Rain = 0
KCR2 152051Z 30008KT 40/06 A298 RMK A01 T03950055  RH  013%=      5-min Rain = 0
KCR2 152052Z 30008KT 39/05 A298 RMK A01 T03930053  RH  013%=      5-min Rain = 0
KCR2 152053Z 29010KT 39/06 A298 RMK A01 T03910055  RH  013%=      5-min Rain = 0
KCR2 152054Z 28008KT 39/06 A298 RMK A01 T03910056  RH  013%=      5-min Rain = 0
KCR2 152055Z 30011KT 39/06 A298 RMK A01 T03880055  RH  013%=      5-min Rain = 0
KCR2 152056Z 29011KT 39/06 A298 RMK A01 T03860055  RH  013%=      5-min Rain = 0
KCR2 152057Z 28013KT 39/06 A298 RMK A01 T03860057  RH  013%=      5-min Rain = 0
KCR2 152058Z 27013KT 39/06 A298 RMK A01 T03880056  RH  013%=      5-min Rain = 0
KCR2 152059Z 27011KT 39/05 A298 RMK A01 T03860054  RH  013%=      5-min Rain = 0
KCR2 152100Z 26008KT 38/05 A298 RMK A01 T03830054  RH  013%=      5-min Rain = 0
KCR2 152101Z 28006KT 38/06 A298 RMK A01 T03830058  RH  014%=      5-min Rain = 0
KCR2 152102Z 29008KT 38/06 A298 RMK A01 T03840055  RH  013%=      5-min Rain = 0
KCR2 152103Z 31004KT 38/06 A298 RMK A01 T03840056  RH  013%=      5-min Rain = 0
KCR2 152104Z 31004KT 39/06 A298 RMK A01 T03860056  RH  013%=      5-min Rain = 0
KCR2 152105Z 31008KT 39/06 A298 RMK A01 T03900057  RH  013%=      5-min Rain = 0
KCR2 152106Z 30010KT 39/06 A298 RMK A01 T03930056  RH  013%=      5-min Rain = 0
KCR2 152107Z 29011KT 39/06 A298 RMK A01 T03920058  RH  013%=      5-min Rain = 0
KCR2 152108Z 28014KT 39/06 A298 RMK A01 T03920059  RH  013%=      5-min Rain = 0
KCR2 152109Z 28009KT 39/06 A298 RMK A01 T03910059  RH  013%=      5-min Rain = 0
KCR2 152110Z 27007KT 39/06 A298 RMK A01 T03910059  RH  013%=      5-min Rain = 0
KCR2 152111Z 24007KT 39/06 A298 RMK A01 T03900062  RH  014%=      5-min Rain = 0
KCR2 152112Z 23006KT 39/06 A2979 RMK A01 T03900059  RH  013%=      5-min Rain = 0
KCR2 152113Z 25005KT 39/06 A2979 RMK A01 T03890060  RH  013%=      5-min Rain = 0
KCR2 152114Z 29008KT 39/06 A2979 RMK A01 T03890061  RH  014%=      5-min Rain = 0
KCR2 152115Z 31011KT 39/06 A2979 RMK A01 T03920057  RH  013%=      5-min Rain = 0
KCR2 152116Z 32008KT 39/06 A2979 RMK A01 T03910056  RH  013%=      5-min Rain = 0
KCR2 152117Z 32007KT 39/06 A2979 RMK A01 T03900056  RH  013%=      5-min Rain = 0
KCR2 152118Z 32003KT 39/06 A2979 RMK A01 T03880055  RH  013%=      5-min Rain = 0
KCR2 152119Z 27005G10KT 39/06 A2979 RMK A01 T03870057  RH  013%=      5-min Rain = 0
KCR2 152120Z 25007KT 39/06 A2979 RMK A01 T03900058  RH  013%=      5-min Rain = 0
KCR2 152121Z 24007KT 39/06 A2979 RMK A01 T03880056  RH  013%=      5-min Rain = 0
KCR2 152122Z 23006KT 39/06 A2979 RMK A01 T03860056  RH  013%=      5-min Rain = 0
KCR2 152123Z 26004KT 39/06 A2979 RMK A01 T03850056  RH  013%=      5-min Rain = 0
KCR2 152124Z 32005KT 39/06 A2979 RMK A01 T03870058  RH  013%=      5-min Rain = 0
KCR2 152125Z 31004KT 39/06 A2979 RMK A01 T03900060  RH  013%=      5-min Rain = 0
KCR2 152126Z 27006G14KT 39/06 A2979 RMK A01 T03920058  RH  013%=      5-min Rain = 0
KCR2 152127Z 28013KT 39/06 A2979 RMK A01 T03920061  RH  013%=      5-min Rain = 0
KCR2 152128Z 28012KT 39/06 A2979 RMK A01 T03930060  RH  013%=      5-min Rain = 0
KCR2 152129Z 29010KT 39/06 A2979 RMK A01 T03930060  RH  013%=      5-min Rain = 0
KCR2 152130Z 30008KT 39/06 A2979 RMK A01 T03930058  RH  013%=      5-min Rain = 0
KCR2 152131Z 29009KT 39/06 A2978 RMK A01 T03930060  RH  013%=      5-min Rain = 0
KCR2 152132Z 27007KT 39/06 A2978 RMK A01 T03940060  RH  013%=      5-min Rain = 0
KCR2 152133Z 26004KT 39/06 A2978 RMK A01 T03900057  RH  013%=      5-min Rain = 0
KCR2 152134Z 26005KT 39/06 A2978 RMK A01 T03880057  RH  013%=      5-min Rain = 0
KCR2 152135Z 26005KT 39/06 A2978 RMK A01 T03870058  RH  013%=      5-min Rain = 0
KCR2 152136Z 26009G14KT 39/06 A2978 RMK A01 T03890060  RH  013%=      5-min Rain = 0
KCR2 152137Z 25012KT 39/06 A2978 RMK A01 T03920060  RH  013%=      5-min Rain = 0
KCR2 152138Z 25015KT 40/06 A2978 RMK A01 T03960060  RH  013%=      5-min Rain = 0
KCR2 152139Z 24012KT 40/06 A2978 RMK A01 T03950055  RH  013%=      5-min Rain = 0
KCR2 152140Z 25012KT 39/06 A2978 RMK A01 T03910058  RH  013%=      5-min Rain = 0
KCR2 152141Z 25014KT 39/06 A2978 RMK A01 T03930058  RH  013%=      5-min Rain = 0
KCR2 152142Z 24012KT 39/06 A2978 RMK A01 T03920058  RH  013%=      5-min Rain = 0
KCR2 152143Z 25016KT 39/06 A2978 RMK A01 T03930058  RH  013%=      5-min Rain = 0
KCR2 152144Z 26015KT 39/06 A2978 RMK A01 T03910056  RH  013%=      5-min Rain = 0
KCR2 152145Z 26010KT 39/06 A2978 RMK A01 T03920060  RH  013%=      5-min Rain = 0
KCR2 152146Z 28008KT 40/06 A2978 RMK A01 T03960061  RH  013%=      5-min Rain = 0
KCR2 152147Z 28008KT 40/06 A2978 RMK A01 T03960055  RH  013%=      5-min Rain = 0
KCR2 152148Z 29005KT 39/05 A2978 RMK A01 T03900054  RH  013%=      5-min Rain = 0
KCR2 152149Z 32004KT 39/06 A2978 RMK A01 T03900058  RH  013%=      5-min Rain = 0
KCR2 152150Z 30003KT 39/06 A2978 RMK A01 T03900056  RH  013%=      5-min Rain = 0
KCR2 152151Z 29007KT 39/06 A2978 RMK A01 T03930060  RH  013%=      5-min Rain = 0
KCR2 152152Z 27009KT 39/06 A2978 RMK A01 T03940058  RH  013%=      5-min Rain = 0
KCR2 152153Z 26014KT 39/06 A2978 RMK A01 T03920058  RH  013%=      5-min Rain = 0
KCR2 152154Z 25018KT 39/06 A2978 RMK A01 T03920059  RH  013%=      5-min Rain = 0
KCR2 152155Z 25017KT 39/06 A2978 RMK A01 T03920057  RH  013%=      5-min Rain = 0
KCR2 152156Z 25017KT 39/06 A2978 RMK A01 T03880056  RH  013%=      5-min Rain = 0
KCR2 152157Z 25014KT 39/06 A2978 RMK A01 T03880056  RH  013%=      5-min Rain = 0
KCR2 152158Z 24014KT 39/06 A2978 RMK A01 T03890056  RH  013%=      5-min Rain = 0
KCR2 152159Z 23011KT 39/06 A2978 RMK A01 T03860057  RH  013%=      5-min Rain = 0
KCR2 152200Z 22008KT 38/06 A2978 RMK A01 T03840059  RH  014%=      5-min Rain = 0
KCR2 152201Z 22011KT 38/06 A2978 RMK A01 T03830062  RH  014%=      5-min Rain = 0
KCR2 152202Z 23010KT 38/06 A2978 RMK A01 T03830058  RH  014%=      5-min Rain = 0
KCR2 152203Z 24006KT 38/06 A2978 RMK A01 T03840057  RH  013%=      5-min Rain = 0
KCR2 152204Z 26007KT 39/06 A2978 RMK A01 T03870060  RH  014%=      5-min Rain = 0
KCR2 152205Z 28010KT 39/06 A2978 RMK A01 T03900059  RH  013%=      5-min Rain = 0
KCR2 152206Z 28009KT 39/06 A2978 RMK A01 T03930060  RH  013%=      5-min Rain = 0
KCR2 152207Z 30008KT 39/06 A2978 RMK A01 T03900057  RH  013%=      5-min Rain = 0
KCR2 152208Z 30011G16KT 39/06 A2978 RMK A01 T03880058  RH  013%=      5-min Rain = 0
KCR2 152209Z 30012KT 39/06 A2977 RMK A01 T03870058  RH  013%=      5-min Rain = 0
KCR2 152210Z 30013KT 39/06 A2977 RMK A01 T03860057  RH  013%=      5-min Rain = 0
KCR2 152211Z 30010KT 39/06 A2977 RMK A01 T03860056  RH  013%=      5-min Rain = 0
KCR2 152212Z 28009KT 39/06 A2978 RMK A01 T03860058  RH  013%=      5-min Rain = 0
KCR2 152213Z 26012G17KT 39/06 A2978 RMK A01 T03850060  RH  014%=      5-min Rain = 0
KCR2 152214Z 25016KT 39/06 A2978 RMK A01 T03850056  RH  013%=      5-min Rain = 0
KCR2 152215Z 26015KT 38/06 A2978 RMK A01 T03830055  RH  013%=      5-min Rain = 0
KCR2 152216Z 26014KT 38/06 A2978 RMK A01 T03820055  RH  013%=      5-min Rain = 0
KCR2 152217Z 26014KT 38/06 A2978 RMK A01 T03820056  RH  014%=      5-min Rain = 0
KCR2 152218Z 25012KT 38/06 A2977 RMK A01 T03810056  RH  014%=      5-min Rain = 0
KCR2 152219Z 25011KT 38/06 A2977 RMK A01 T03820062  RH  014%=      5-min Rain = 0
KCR2 152220Z 25016KT 38/06 A2977 RMK A01 T03820057  RH  014%=      5-min Rain = 0
KCR2 152221Z 25015KT 38/06 A2978 RMK A01 T03810056  RH  014%=      5-min Rain = 0
KCR2 152222Z 26014KT 38/05 A2978 RMK A01 T03800054  RH  014%=      5-min Rain = 0
KCR2 152223Z 26011KT 38/06 A2978 RMK A01 T03790055  RH  014%=      5-min Rain = 0
KCR2 152224Z 25013G18KT 38/06 A2978 RMK A01 T03800057  RH  014%=      5-min Rain = 0
KCR2 152225Z 23024G30KT 38/06 A2978 RMK A01 T03800063  RH  014%=      5-min Rain = 0
KCR2 152226Z 23026KT 37/07 A2978 RMK A01 T03740068  RH  015%=      5-min Rain = 0
KCR2 152227Z 23024G30KT 37/07 A2978 RMK A01 T03650067  RH  016%=      5-min Rain = 0
KCR2 152228Z 22018KT 36/07 A2977 RMK A01 T03620069  RH  017%=      5-min Rain = 0
KCR2 152229Z 23021KT 36/07 A2977 RMK A01 T03620070  RH  017%=      5-min Rain = 0
KCR2 152230Z 22017G22KT 36/07 A2977 RMK A01 T03630072  RH  017%=      5-min Rain = 0
KCR2 152231Z 22018G23KT 37/07 A2977 RMK A01 T03650072  RH  017%=      5-min Rain = 0
KCR2 152232Z 23019G24KT 37/07 A2977 RMK A01 T03680065  RH  016%=      5-min Rain = 0
KCR2 152233Z 22023G31KT 37/07 A2977 RMK A01 T03730066  RH  015%=      5-min Rain = 0
KCR2 152234Z 22025KT 38/06 A2976 RMK A01 T03750064  RH  015%=      5-min Rain = 0
KCR2 152235Z 22024G30KT 37/06 A2976 RMK A01 T03740064  RH  015%=      5-min Rain = 0
KCR2 152236Z 22024G29KT 37/07 A2976 RMK A01 T03740065  RH  015%=      5-min Rain = 0
KCR2 152237Z 21021KT 38/06 A2976 RMK A01 T03760064  RH  015%=      5-min Rain = 0
KCR2 152238Z 22018KT 38/07 A2976 RMK A01 T03800066  RH  015%=      5-min Rain = 0
KCR2 152239Z 21018KT 38/06 A2976 RMK A01 T03820063  RH  014%=      5-min Rain = 0
KCR2 152240Z 21020G25KT 38/06 A2976 RMK A01 T03810056  RH  014%=      5-min Rain = 0
KCR2 152241Z 22022KT 38/05 A2976 RMK A01 T03800047  RH  013%=      5-min Rain = 0
KCR2 152242Z 21023KT 38/04 A2976 RMK A01 T03780044  RH  013%=      5-min Rain = 0
KCR2 152243Z 21020KT 38/04 A2976 RMK A01 T03780044  RH  013%=      5-min Rain = 0
KCR2 152244Z 21019KT 38/04 A2976 RMK A01 T03790043  RH  013%=      5-min Rain = 0
KCR2 152245Z 22015KT 38/05 A2976 RMK A01 T03800047  RH  013%=      5-min Rain = 0
KCR2 152246Z 21017KT 38/05 A2976 RMK A01 T03830050  RH  013%=      5-min Rain = 0
KCR2 152247Z 21016KT 38/05 A2976 RMK A01 T03840049  RH  013%=      5-min Rain = 0
KCR2 152248Z 21012KT 38/05 A2976 RMK A01 T03840050  RH  013%=      5-min Rain = 0
KCR2 152249Z 20017KT 39/05 A2976 RMK A01 T03870051  RH  013%=      5-min Rain = 0
KCR2 152250Z 19015KT 39/05 A2976 RMK A01 T03850051  RH  013%=      5-min Rain = 0
KCR2 152251Z 21014KT 38/05 A2976 RMK A01 T03840051  RH  013%=      5-min Rain = 0
KCR2 152252Z 21014KT 39/05 A2976 RMK A01 T03850052  RH  013%=      5-min Rain = 0
KCR2 152253Z 21016KT 39/05 A2976 RMK A01 T03880048  RH  012%=      5-min Rain = 0
KCR2 152254Z 21015KT 39/05 A2976 RMK A01 T03860051  RH  013%=      5-min Rain = 0
KCR2 152255Z 20014KT 39/05 A2976 RMK A01 T03850047  RH  013%=      5-min Rain = 0
KCR2 152256Z 21014KT 39/04 A2976 RMK A01 T03860044  RH  012%=      5-min Rain = 0
KCR2 152257Z 21013KT 39/05 A2976 RMK A01 T03860046  RH  012%=      5-min Rain = 0
KCR2 152258Z 21014KT 39/04 A2976 RMK A01 T03850044  RH  012%=      5-min Rain = 0
KCR2 152259Z 21013KT 39/04 A2976 RMK A01 T03860036  RH  012%=      5-min Rain = 0
KCR2 152300Z 21014KT 39/03 A2976 RMK A01 T03870034  RH  011%=      5-min Rain = 0
KCR2 152301Z 22012KT 39/03 A2976 RMK A01 T03870034  RH  011%=      5-min Rain = 0
KCR2 152302Z 23015KT 39/04 A2976 RMK A01 T03870038  RH  012%=      5-min Rain = 0
KCR2 152303Z 22014KT 39/04 A2976 RMK A01 T03860039  RH  012%=      5-min Rain = 0
KCR2 152304Z 22012G17KT 39/05 A2976 RMK A01 T03850046  RH  012%=      5-min Rain = 0
KCR2 152305Z 23016KT 39/05 A2976 RMK A01 T03860045  RH  012%=      5-min Rain = 0
KCR2 152306Z 23015KT 39/04 A2976 RMK A01 T03850044  RH  012%=      5-min Rain = 0
KCR2 152307Z 23015KT 38/05 A2976 RMK A01 T03820047  RH  013%=      5-min Rain = 0
KCR2 152308Z 24016KT 38/05 A2976 RMK A01 T03800047  RH  013%=      5-min Rain = 0
KCR2 152309Z 24016KT 38/05 A2976 RMK A01 T03800047  RH  013%=      5-min Rain = 0
KCR2 152310Z 23014KT 38/05 A2976 RMK A01 T03800050  RH  013%=      5-min Rain = 0
KCR2 152311Z 22014KT 38/06 A2976 RMK A01 T03810056  RH  014%=      5-min Rain = 0
KCR2 152312Z 23011KT 38/06 A2976 RMK A01 T03820059  RH  014%=      5-min Rain = 0
KCR2 152313Z 24013G18KT 38/06 A2976 RMK A01 T03820058  RH  014%=      5-min Rain = 0
KCR2 152314Z 23015KT 38/06 A2976 RMK A01 T03820057  RH  014%=      5-min Rain = 0
KCR2 152315Z 23013KT 38/06 A2975 RMK A01 T03830058  RH  014%=      5-min Rain = 0
KCR2 152316Z 24012KT 38/06 A2975 RMK A01 T03830057  RH  014%=      5-min Rain = 0
KCR2 152317Z 24015KT 38/06 A2975 RMK A01 T03830057  RH  014%=      5-min Rain = 0
KCR2 152318Z 23012KT 38/06 A2975 RMK A01 T03840057  RH  013%=      5-min Rain = 0
KCR2 152319Z 22012KT 39/06 A2975 RMK A01 T03850055  RH  013%=      5-min Rain = 0
KCR2 152320Z 20015KT 39/05 A2975 RMK A01 T03850052  RH  013%=      5-min Rain = 0
KCR2 152321Z 19017G24KT 39/08 A2976 RMK A01 T03860081  RH  016%=      5-min Rain = 0
KCR2 152322Z 18019KT 38/16 A2976 RMK A01 T03760163  RH  029%=      5-min Rain = 0
KCR2 152323Z 18015KT 36/17 A2976 RMK A01 T03600167  RH  032%=      5-min Rain = 0
KCR2 152324Z 18014KT 36/17 A2976 RMK A01 T03550168  RH  033%=      5-min Rain = 0
KCR2 152325Z 19017KT 36/17 A2976 RMK A01 T03550167  RH  033%=      5-min Rain = 0
KCR2 152326Z 19019KT 35/16 A2976 RMK A01 T03530164  RH  033%=      5-min Rain = 0
KCR2 152327Z 19018KT 35/16 A2976 RMK A01 T03520164  RH  033%=      5-min Rain = 0
KCR2 152328Z 18019KT 35/16 A2975 RMK A01 T03520161  RH  032%=      5-min Rain = 0
KCR2 152329Z 17019KT 35/16 A2975 RMK A01 T03530155  RH  031%=      5-min Rain = 0
KCR2 152330Z 16019KT 35/16 A2975 RMK A01 T03530160  RH  032%=      5-min Rain = 0
KCR2 152331Z 16017KT 35/16 A2975 RMK A01 T03530160  RH  032%=      5-min Rain = 0
KCR2 152332Z 17019G24KT 36/16 A2975 RMK A01 T03550160  RH  032%=      5-min Rain = 0
KCR2 152333Z 15020KT 35/16 A2976 RMK A01 T03530155  RH  031%=      5-min Rain = 0
KCR2 152334Z 16020KT 35/15 A2976 RMK A01 T03510145  RH  029%=      5-min Rain = 0
KCR2 152335Z 18018KT 35/14 A2976 RMK A01 T03510144  RH  029%=      5-min Rain = 0
KCR2 152336Z 18018G24KT 35/15 A2976 RMK A01 T03530145  RH  029%=      5-min Rain = 0
KCR2 152337Z 18023G28KT 35/14 A2976 RMK A01 T03530138  RH  028%=      5-min Rain = 0
KCR2 152338Z 18022G27KT 35/14 A2976 RMK A01 T03490137  RH  028%=      5-min Rain = 0
KCR2 152339Z 18021KT 35/13 A2976 RMK A01 T03460134  RH  028%=      5-min Rain = 0
KCR2 152340Z 17020KT 35/13 A2976 RMK A01 T03460134  RH  028%=      5-min Rain = 0
KCR2 152341Z 18019KT 35/14 A2976 RMK A01 T03460135  RH  028%=      5-min Rain = 0
KCR2 152342Z 17016G21KT 35/14 A2976 RMK A01 T03460135  RH  028%=      5-min Rain = 0
KCR2 152343Z 17018KT 35/14 A2976 RMK A01 T03480136  RH  028%=      5-min Rain = 0
KCR2 152344Z 18016KT 35/14 A2976 RMK A01 T03470135  RH  028%=      5-min Rain = 0
KCR2 152345Z 18017KT 35/13 A2976 RMK A01 T03470134  RH  028%=      5-min Rain = 0
KCR2 152346Z 18016KT 35/13 A2976 RMK A01 T03470134  RH  028%=      5-min Rain = 0
KCR2 152347Z 17019KT 35/13 A2976 RMK A01 T03470132  RH  027%=      5-min Rain = 0
KCR2 152348Z 17017KT 35/13 A2976 RMK A01 T03450130  RH  027%=      5-min Rain = 0
KCR2 152349Z 17016KT 35/13 A2976 RMK A01 T03450128  RH  027%=      5-min Rain = 0
KCR2 152350Z 18015KT 35/13 A2976 RMK A01 T03450128  RH  027%=      5-min Rain = 0
KCR2 152351Z 18014KT 35/13 A2975 RMK A01 T03470127  RH  026%=      5-min Rain = 0
KCR2 152352Z 19014KT 35/13 A2975 RMK A01 T03470126  RH  026%=      5-min Rain = 0
KCR2 152353Z 18014KT 35/13 A2975 RMK A01 T03470128  RH  027%=      5-min Rain = 0
KCR2 152354Z 18014KT 35/13 A2975 RMK A01 T03480130  RH  027%=      5-min Rain = 0
KCR2 152355Z 17012KT 35/13 A2975 RMK A01 T03490132  RH  027%=      5-min Rain = 0
KCR2 152356Z 18012KT 35/13 A2975 RMK A01 T03510132  RH  027%=      5-min Rain = 0
KCR2 152357Z 19012KT 35/13 A2975 RMK A01 T03510128  RH  026%=      5-min Rain = 0
KCR2 152358Z 18010KT 35/13 A2975 RMK A01 T03520126  RH  026%=      5-min Rain = 0
KCR2 152359Z 17012KT 35/13 A2975 RMK A01 T03540129  RH  026%=      5-min Rain = 0
KCR2 160000Z 17013KT 35/13 A2975 RMK A01 T03540127  RH  026%=      5-min Rain = 0
KCR2 160001Z 18012KT 35/13 A2975 RMK A01 T03530126  RH  025%=      5-min Rain = 0
KCR2 160002Z 18014KT 36/13 A2975 RMK A01 T03550128  RH  026%=      5-min Rain = 0
KCR2 160003Z 19016KT 36/13 A2975 RMK A01 T03550127  RH  025%=      5-min Rain = 0
KCR2 160004Z 18014KT 35/13 A2975 RMK A01 T03540128  RH  026%=      5-min Rain = 0
KCR2 160005Z 18016KT 35/13 A2975 RMK A01 T03530128  RH  026%=      5-min Rain = 0
KCR2 160006Z 17015KT 35/13 A2975 RMK A01 T03510127  RH  026%=      5-min Rain = 0
KCR2 160007Z 17018KT 35/12 A2975 RMK A01 T03510124  RH  025%=      5-min Rain = 0
KCR2 160008Z 18016KT 35/12 A2975 RMK A01 T03500123  RH  025%=      5-min Rain = 0
KCR2 160009Z 19022KT 35/12 A2975 RMK A01 T03490117  RH  025%=      5-min Rain = 0
KCR2 160010Z 19022KT 35/11 A2975 RMK A01 T03480110  RH  024%=      5-min Rain = 0
KCR2 160011Z 19022KT 35/11 A2975 RMK A01 T03450107  RH  024%=      5-min Rain = 0
KCR2 160012Z 20022KT 34/11 A2975 RMK A01 T03430107  RH  024%=      5-min Rain = 0
KCR2 160013Z 19022KT 34/11 A2975 RMK A01 T03410108  RH  024%=      5-min Rain = 0
KCR2 160014Z 19018KT 34/11 A2975 RMK A01 T03400107  RH  024%=      5-min Rain = 0
KCR2 160015Z 18017KT 34/11 A2975 RMK A01 T03400108  RH  024%=      5-min Rain = 0
KCR2 160016Z 18015G22KT 34/11 A2975 RMK A01 T03410109  RH  024%=      5-min Rain = 0
KCR2 160017Z 18019KT 34/11 A2975 RMK A01 T03420109  RH  024%=      5-min Rain = 0
KCR2 160018Z 18020KT 34/11 A2975 RMK A01 T03410110  RH  025%=      5-min Rain = 0
KCR2 160019Z 18017KT 34/11 A2975 RMK A01 T03410111  RH  025%=      5-min Rain = 0
KCR2 160020Z 18017KT 34/11 A2975 RMK A01 T03410113  RH  025%=      5-min Rain = 0
KCR2 160021Z 18018KT 34/11 A2975 RMK A01 T03410113  RH  025%=      5-min Rain = 0
KCR2 160022Z 17016KT 34/11 A2975 RMK A01 T03420112  RH  025%=      5-min Rain = 0
KCR2 160023Z 19020KT 34/11 A2975 RMK A01 T03420109  RH  024%=      5-min Rain = 0
KCR2 160024Z 18019KT 34/11 A2975 RMK A01 T03400107  RH  024%=      5-min Rain = 0
KCR2 160025Z 19020G25KT 34/11 A2975 RMK A01 T03380109  RH  025%=      5-min Rain = 0
KCR2 160026Z 18018KT 34/11 A2975 RMK A01 T03370111  RH  025%=      5-min Rain = 0
KCR2 160027Z 18018KT 34/11 A2975 RMK A01 T03360113  RH  026%=      5-min Rain = 0
KCR2 160028Z 19015KT 34/12 A2975 RMK A01 T03350115  RH  026%=      5-min Rain = 0
KCR2 160029Z 18013KT 34/12 A2975 RMK A01 T03350117  RH  027%=      5-min Rain = 0
KCR2 160030Z 18015KT 34/12 A2975 RMK A01 T03350117  RH  027%=      5-min Rain = 0
KCR2 160031Z 18018KT 33/12 A2975 RMK A01 T03340116  RH  026%=      5-min Rain = 0
KCR2 160032Z 18017G22KT 33/12 A2975 RMK A01 T03330116  RH  027%=      5-min Rain = 0
KCR2 160033Z 18017KT 33/12 A2975 RMK A01 T03330116  RH  027%=      5-min Rain = 0
KCR2 160034Z 18019KT 33/12 A2975 RMK A01 T03330117  RH  027%=      5-min Rain = 0
KCR2 160035Z 18017KT 33/12 A2975 RMK A01 T03330120  RH  027%=      5-min Rain = 0
KCR2 160036Z 18020KT 33/12 A2975 RMK A01 T03330122  RH  028%=      5-min Rain = 0
KCR2 160037Z 18016KT 33/12 A2976 RMK A01 T03320123  RH  028%=      5-min Rain = 0
KCR2 160038Z 19016KT 33/13 A2976 RMK A01 T03320125  RH  028%=      5-min Rain = 0
KCR2 160039Z 18015KT 33/13 A2976 RMK A01 T03310127  RH  029%=      5-min Rain = 0
KCR2 160040Z 19017KT 33/13 A2976 RMK A01 T03310128  RH  029%=      5-min Rain = 0
KCR2 160041Z 19016KT 33/13 A2976 RMK A01 T03300128  RH  029%=      5-min Rain = 0
KCR2 160042Z 18017KT 33/13 A2976 RMK A01 T03300128  RH  029%=      5-min Rain = 0
KCR2 160043Z 18018KT 33/13 A2976 RMK A01 T03300127  RH  029%=      5-min Rain = 0
KCR2 160044Z 18018KT 33/13 A2976 RMK A01 T03300127  RH  029%=      5-min Rain = 0
KCR2 160045Z 19018KT 33/13 A2976 RMK A01 T03290128  RH  029%=      5-min Rain = 0
KCR2 160046Z 18019KT 33/13 A2976 RMK A01 T03290128  RH  030%=      5-min Rain = 0
KCR2 160047Z 18019KT 33/13 A2976 RMK A01 T03280129  RH  030%=      5-min Rain = 0
KCR2 160048Z 18019KT 33/13 A2976 RMK A01 T03270130  RH  030%=      5-min Rain = 0
KCR2 160049Z 18018KT 33/13 A2976 RMK A01 T03260130  RH  030%=      5-min Rain = 0
KCR2 160050Z 18017KT 33/13 A2976 RMK A01 T03260131  RH  031%=      5-min Rain = 0
KCR2 160051Z 18014KT 33/13 A2976 RMK A01 T03260130  RH  030%=      5-min Rain = 0
KCR2 160052Z 18014G20KT 33/13 A2976 RMK A01 T03270131  RH  031%=      5-min Rain = 0
KCR2 160053Z 18016KT 33/13 A2976 RMK A01 T03270132  RH  031%=      5-min Rain = 0
KCR2 160054Z 19018KT 33/13 A2976 RMK A01 T03270130  RH  030%=      5-min Rain = 0
KCR2 160055Z 18015KT 33/13 A2976 RMK A01 T03260128  RH  030%=      5-min Rain = 0
KCR2 160056Z 18020KT 33/13 A2976 RMK A01 T03260126  RH  030%=      5-min Rain = 0
KCR2 160057Z 18019KT 33/12 A2976 RMK A01 T03250124  RH  029%=      5-min Rain = 0
KCR2 160058Z 18017KT 33/12 A2976 RMK A01 T03250124  RH  029%=      5-min Rain = 0
KCR2 160059Z 18021KT 33/12 A2976 RMK A01 T03250121  RH  029%=      5-min Rain = 0
KCR2 160100Z 18020KT 33/12 A2976 RMK A01 T03260119  RH  028%=      5-min Rain = 0
KCR2 160101Z 17018KT 33/12 A2976 RMK A01 T03250119  RH  028%=      5-min Rain = 0
KCR2 160102Z 18020KT 33/12 A2976 RMK A01 T03250117  RH  028%=      5-min Rain = 0
KCR2 160103Z 18021KT 33/11 A2976 RMK A01 T03250114  RH  028%=      5-min Rain = 0
KCR2 160104Z 18015G20KT 32/12 A2976 RMK A01 T03240115  RH  028%=      5-min Rain = 0
KCR2 160105Z 18017KT 33/11 A2976 RMK A01 T03250114  RH  027%=      5-min Rain = 0
KCR2 160106Z 18018KT 33/11 A2976 RMK A01 T03250112  RH  027%=      5-min Rain = 0
KCR2 160107Z 18018G23KT 33/11 A2976 RMK A01 T03250110  RH  027%=      5-min Rain = 0
KCR2 160108Z 18019KT 33/11 A2976 RMK A01 T03250108  RH  026%=      5-min Rain = 0
KCR2 160109Z 17016KT 32/11 A2977 RMK A01 T03240108  RH  026%=      5-min Rain = 0
KCR2 160110Z 18019KT 33/11 A2976 RMK A01 T03250106  RH  026%=      5-min Rain = 0
KCR2 160111Z 18018KT 33/10 A2976 RMK A01 T03250103  RH  026%=      5-min Rain = 0
KCR2 160112Z 18019KT 32/10 A2976 RMK A01 T03240101  RH  025%=      5-min Rain = 0
KCR2 160113Z 18016KT 32/10 A2976 RMK A01 T03240101  RH  025%=      5-min Rain = 0
KCR2 160114Z 18014G20KT 32/10 A2977 RMK A01 T03230102  RH  026%=      5-min Rain = 0
KCR2 160115Z 18016KT 32/10 A2977 RMK A01 T03230101  RH  026%=      5-min Rain = 0
KCR2 160116Z 18017KT 32/10 A2977 RMK A01 T03220100  RH  026%=      5-min Rain = 0
KCR2 160117Z 19015KT 32/10 A2977 RMK A01 T03210101  RH  026%=      5-min Rain = 0
KCR2 160118Z 18014KT 32/10 A2977 RMK A01 T03200101  RH  026%=      5-min Rain = 0
KCR2 160119Z 18016KT 32/10 A2977 RMK A01 T03200099  RH  026%=      5-min Rain = 0
KCR2 160120Z 18018G23KT 32/10 A2977 RMK A01 T03190099  RH  026%=      5-min Rain = 0
KCR2 160121Z 18019KT 32/10 A2977 RMK A01 T03190097  RH  026%=      5-min Rain = 0
KCR2 160122Z 18014KT 32/10 A2977 RMK A01 T03190099  RH  026%=      5-min Rain = 0
KCR2 160123Z 18016KT 32/10 A2977 RMK A01 T03180099  RH  026%=      5-min Rain = 0
KCR2 160124Z 18015KT 32/10 A2977 RMK A01 T03180098  RH  026%=      5-min Rain = 0
KCR2 160125Z 18016G21KT 32/10 A2977 RMK A01 T03180098  RH  026%=      5-min Rain = 0
KCR2 160126Z 18015KT 32/10 A2977 RMK A01 T03180098  RH  026%=      5-min Rain = 0
KCR2 160127Z 18017KT 32/10 A2977 RMK A01 T03180097  RH  026%=      5-min Rain = 0
KCR2 160128Z 18013KT 32/10 A2977 RMK A01 T03170097  RH  026%=      5-min Rain = 0
KCR2 160129Z 18013KT 32/10 A2977 RMK A01 T03170097  RH  026%=      5-min Rain = 0
KCR2 160130Z 18015KT 32/10 A2978 RMK A01 T03170097  RH  026%=      5-min Rain = 0
KCR2 160131Z 18015KT 32/10 A2978 RMK A01 T03170096  RH  026%=      5-min Rain = 0
KCR2 160132Z 18015KT 32/10 A2978 RMK A01 T03170096  RH  026%=      5-min Rain = 0
KCR2 160133Z 18016KT 32/10 A2978 RMK A01 T03160095  RH  025%=      5-min Rain = 0
KCR2 160134Z 18017KT 32/09 A2978 RMK A01 T03160094  RH  025%=      5-min Rain = 0
KCR2 160135Z 17015KT 32/09 A2978 RMK A01 T03160094  RH  025%=      5-min Rain = 0
KCR2 160136Z 18015KT 32/09 A2978 RMK A01 T03160093  RH  025%=      5-min Rain = 0
KCR2 160137Z 18017KT 32/09 A2978 RMK A01 T03160092  RH  025%=      5-min Rain = 0
KCR2 160138Z 18016KT 32/09 A2978 RMK A01 T03160091  RH  025%=      5-min Rain = 0
KCR2 160139Z 18016KT 32/09 A2978 RMK A01 T03160090  RH  025%=      5-min Rain = 0
KCR2 160140Z 18016KT 32/09 A2978 RMK A01 T03160090  RH  025%=      5-min Rain = 0
KCR2 160141Z 18017KT 32/09 A2978 RMK A01 T03160089  RH  025%=      5-min Rain = 0
KCR2 160142Z 18017KT 32/09 A2978 RMK A01 T03150090  RH  025%=      5-min Rain = 0
KCR2 160143Z 18016KT 32/09 A2978 RMK A01 T03150091  RH  025%=      5-min Rain = 0
KCR2 160144Z 18014KT 31/09 A2979 RMK A01 T03140091  RH  025%=      5-min Rain = 0
KCR2 160145Z 18016G21KT 31/09 A2978 RMK A01 T03140092  RH  025%=      5-min Rain = 0
KCR2 160146Z 18014KT 31/09 A2978 RMK A01 T03130094  RH  026%=      5-min Rain = 0
KCR2 160147Z 18015KT 31/10 A2978 RMK A01 T03120095  RH  026%=      5-min Rain = 0
KCR2 160148Z 18014KT 31/10 A2978 RMK A01 T03110096  RH  026%=      5-min Rain = 0
KCR2 160149Z 19015KT 31/10 A2978 RMK A01 T03100097  RH  027%=      5-min Rain = 0
KCR2 160150Z 18014KT 31/10 A2978 RMK A01 T03100098  RH  027%=      5-min Rain = 0
KCR2 160151Z 19013KT 31/10 A2978 RMK A01 T03090099  RH  027%=      5-min Rain = 0
KCR2 160152Z 18012KT 31/10 A2978 RMK A01 T03080100  RH  028%=      5-min Rain = 0
KCR2 160153Z 18012KT 31/10 A2978 RMK A01 T03070102  RH  028%=      5-min Rain = 0
KCR2 160154Z 18012KT 31/11 A2978 RMK A01 T03060105  RH  029%=      5-min Rain = 0
KCR2 160155Z 19012KT 31/11 A2978 RMK A01 T03050106  RH  029%=      5-min Rain = 0
KCR2 160156Z 18012KT 30/11 A2978 RMK A01 T03040108  RH  030%=      5-min Rain = 0
KCR2 160157Z 18010KT 30/11 A2978 RMK A01 T03030110  RH  030%=      5-min Rain = 0
KCR2 160158Z 18012KT 30/11 A2978 RMK A01 T03010111  RH  031%=      5-min Rain = 0
KCR2 160159Z 18011KT 30/11 A2978 RMK A01 T03000113  RH  031%=      5-min Rain = 0
KCR2 160200Z 18012KT 30/11 A2978 RMK A01 T02990114  RH  032%=      5-min Rain = 0
KCR2 160201Z 18012KT 30/12 A2979 RMK A01 T02980116  RH  032%=      5-min Rain = 0
KCR2 160202Z 18011KT 30/12 A2979 RMK A01 T02970116  RH  033%=      5-min Rain = 0
KCR2 160203Z 18010KT 30/12 A2979 RMK A01 T02960117  RH  033%=      5-min Rain = 0
KCR2 160204Z 18010KT 30/12 A2979 RMK A01 T02960117  RH  033%=      5-min Rain = 0
KCR2 160205Z 18009KT 30/12 A2979 RMK A01 T02960116  RH  033%=      5-min Rain = 0
KCR2 160206Z 18010KT 30/12 A2979 RMK A01 T02950116  RH  033%=      5-min Rain = 0
KCR2 160207Z 18011KT 30/12 A2979 RMK A01 T02950116  RH  033%=      5-min Rain = 0
KCR2 160208Z 18012KT 30/12 A2979 RMK A01 T02950116  RH  033%=      5-min Rain = 0
KCR2 160209Z 18012KT 29/12 A2979 RMK A01 T02940116  RH  033%=      5-min Rain = 0
KCR2 160210Z 18015KT 29/12 A2979 RMK A01 T02940115  RH  033%=      5-min Rain = 0
KCR2 160211Z 18012KT 29/12 A2979 RMK A01 T02940115  RH  033%=      5-min Rain = 0
KCR2 160212Z 17013KT 29/11 A2979 RMK A01 T02930114  RH  033%=      5-min Rain = 0
KCR2 160213Z 18013KT 29/12 A2979 RMK A01 T02930115  RH  033%=      5-min Rain = 0
KCR2 160214Z 17011KT 29/12 A2979 RMK A01 T02930115  RH  033%=      5-min Rain = 0
KCR2 160215Z 17013KT 29/11 A2979 RMK A01 T02920114  RH  033%=      5-min Rain = 0
KCR2 160216Z 18012KT 29/11 A2979 RMK A01 T02920114  RH  033%=      5-min Rain = 0
KCR2 160217Z 18011KT 29/11 A2979 RMK A01 T02920114  RH  033%=      5-min Rain = 0
KCR2 160218Z 18013KT 29/12 A2979 RMK A01 T02920115  RH  033%=      5-min Rain = 0
KCR2 160219Z 18012KT 29/12 A2979 RMK A01 T02920115  RH  034%=      5-min Rain = 0
KCR2 160220Z 18011KT 29/12 A2979 RMK A01 T02910115  RH  034%=      5-min Rain = 0
KCR2 160221Z 17011KT 29/12 A2979 RMK A01 T02910116  RH  034%=      5-min Rain = 0
KCR2 160222Z 17010KT 29/12 A2979 RMK A01 T02900116  RH  034%=      5-min Rain = 0
KCR2 160223Z 17011KT 29/12 A2979 RMK A01 T02900116  RH  034%=      5-min Rain = 0
KCR2 160224Z 17010KT 29/12 A2979 RMK A01 T02900116  RH  034%=      5-min Rain = 0
KCR2 160225Z 17009KT 29/12 A2979 RMK A01 T02900116  RH  034%=      5-min Rain = 0
KCR2 160226Z 17009KT 29/12 A2979 RMK A01 T02890116  RH  034%=      5-min Rain = 0
KCR2 160227Z 17008KT 29/12 A2979 RMK A01 T02880115  RH  034%=      5-min Rain = 0
KCR2 160228Z 17007KT 29/12 A2979 RMK A01 T02880116  RH  034%=      5-min Rain = 0
KCR2 160229Z 17007KT 29/12 A2979 RMK A01 T02870115  RH  034%=      5-min Rain = 0
KCR2 160230Z 17007KT 29/12 A2979 RMK A01 T02870115  RH  035%=      5-min Rain = 0
KCR2 160231Z 16007KT 29/12 A2979 RMK A01 T02860115  RH  035%=      5-min Rain = 0
KCR2 160232Z 17006KT 29/12 A2979 RMK A01 T02860115  RH  035%=      5-min Rain = 0
KCR2 160233Z 17006KT 29/12 A2979 RMK A01 T02860115  RH  035%=      5-min Rain = 0
KCR2 160234Z 16006KT 29/12 A2979 RMK A01 T02850115  RH  035%=      5-min Rain = 0
KCR2 160235Z 17007KT 29/12 A2979 RMK A01 T02860115  RH  035%=      5-min Rain = 0
KCR2 160236Z 16007KT 29/11 A298 RMK A01 T02860114  RH  035%=      5-min Rain = 0
KCR2 160237Z 17006KT 29/11 A298 RMK A01 T02860114  RH  035%=      5-min Rain = 0
KCR2 160238Z 16006KT 29/11 A298 RMK A01 T02850114  RH  034%=      5-min Rain = 0
KCR2 160239Z 17008KT 29/11 A298 RMK A01 T02850114  RH  035%=      5-min Rain = 0
KCR2 160240Z 16007KT 29/11 A298 RMK A01 T02850114  RH  035%=      5-min Rain = 0
KCR2 160241Z 16005KT 29/11 A298 RMK A01 T02860114  RH  034%=      5-min Rain = 0
KCR2 160242Z 17006KT 29/11 A298 RMK A01 T02860114  RH  034%=      5-min Rain = 0
KCR2 160243Z 17006KT 29/11 A298 RMK A01 T02850114  RH  035%=      5-min Rain = 0
KCR2 160244Z 16003KT 29/11 A298 RMK A01 T02850114  RH  035%=      5-min Rain = 0
KCR2 160245Z 17004KT 29/11 A298 RMK A01 T02850114  RH  035%=      5-min Rain = 0
KCR2 160246Z 19004KT 29/11 A298 RMK A01 T02850114  RH  035%=      5-min Rain = 0
KCR2 160247Z 20004KT 28/11 A2981 RMK A01 T02840114  RH  035%=      5-min Rain = 0
KCR2 160248Z 22003KT 28/12 A2981 RMK A01 T02840115  RH  035%=      5-min Rain = 0
KCR2 160249Z 23001KT 28/12 A2981 RMK A01 T02830115  RH  035%=      5-min Rain = 0
KCR2 160250Z 23002KT 28/12 A2981 RMK A01 T02810115  RH  036%=      5-min Rain = 0
KCR2 160251Z 23003KT 28/12 A2981 RMK A01 T02800115  RH  036%=      5-min Rain = 0
KCR2 160252Z 22002KT 28/12 A2981 RMK A01 T02790115  RH  036%=      5-min Rain = 0
KCR2 160253Z 19002KT 28/12 A2981 RMK A01 T02790116  RH  036%=      5-min Rain = 0
KCR2 160254Z 14002KT 28/12 A2982 RMK A01 T02790116  RH  036%=      5-min Rain = 0
KCR2 160255Z 18002KT 28/12 A2982 RMK A01 T02790116  RH  036%=      5-min Rain = 0
KCR2 160256Z 15004KT 28/12 A2982 RMK A01 T02790116  RH  036%=      5-min Rain = 0
KCR2 160257Z 14003KT 28/12 A2982 RMK A01 T02790115  RH  036%=      5-min Rain = 0
KCR2 160258Z 13004KT 28/12 A2982 RMK A01 T02790115  RH  036%=      5-min Rain = 0
KCR2 160259Z 14004KT 28/12 A2982 RMK A01 T02790115  RH  036%=      5-min Rain = 0
KCR2 160300Z 13006KT 28/12 A2982 RMK A01 T02790115  RH  036%=      5-min Rain = 0
KCR2 160301Z 11005KT 28/12 A2982 RMK A01 T02790116  RH  036%=      5-min Rain = 0
KCR2 160302Z 14004KT 28/12 A2982 RMK A01 T02800115  RH  036%=      5-min Rain = 0
KCR2 160303Z 15003KT 28/12 A2982 RMK A01 T02790115  RH  036%=      5-min Rain = 0
KCR2 160304Z 18004KT 28/12 A2982 RMK A01 T02800116  RH  036%=      5-min Rain = 0
KCR2 160305Z 21003KT 28/12 A2982 RMK A01 T02790117  RH  037%=      5-min Rain = 0
KCR2 160306Z 22003KT 28/12 A2982 RMK A01 T02800118  RH  037%=      5-min Rain = 0
KCR2 160307Z 16001KT 28/12 A2983 RMK A01 T02800118  RH  037%=      5-min Rain = 0
KCR2 160308Z 21004KT 28/12 A2983 RMK A01 T02800119  RH  037%=      5-min Rain = 0
KCR2 160309Z 20006KT 28/12 A2983 RMK A01 T02790122  RH  038%=      5-min Rain = 0
KCR2 160310Z 21007KT 28/12 A2983 RMK A01 T02790123  RH  038%=      5-min Rain = 0
KCR2 160311Z 26003KT 28/12 A2983 RMK A01 T02790123  RH  038%=      5-min Rain = 0
KCR2 160312Z 27001KT 28/12 A2983 RMK A01 T02770122  RH  038%=      5-min Rain = 0
KCR2 160313Z 22003G8KT 28/12 A2983 RMK A01 T02760122  RH  039%=      5-min Rain = 0
KCR2 160314Z 22005KT 28/12 A2983 RMK A01 T02750124  RH  039%=      5-min Rain = 0
KCR2 160315Z 22007KT 28/13 A2983 RMK A01 T02750125  RH  039%=      5-min Rain = 0
KCR2 160316Z 21006KT 28/13 A2983 RMK A01 T02750127  RH  040%=      5-min Rain = 0
KCR2 160317Z 20006KT 27/13 A2983 RMK A01 T02740126  RH  040%=      5-min Rain = 0
KCR2 160318Z 19007KT 27/13 A2983 RMK A01 T02730127  RH  040%=      5-min Rain = 0
KCR2 160319Z 19009KT 27/13 A2983 RMK A01 T02730127  RH  041%=      5-min Rain = 0
KCR2 160320Z 19007KT 27/13 A2983 RMK A01 T02720128  RH  041%=      5-min Rain = 0
KCR2 160321Z 18008KT 27/13 A2983 RMK A01 T02720128  RH  041%=      5-min Rain = 0
KCR2 160322Z 21008KT 27/13 A2984 RMK A01 T02710128  RH  041%=      5-min Rain = 0
KCR2 160323Z 21009KT 27/13 A2984 RMK A01 T02700128  RH  041%=      5-min Rain = 0
KCR2 160324Z 22009KT 27/13 A2984 RMK A01 T02700129  RH  042%=      5-min Rain = 0
KCR2 160325Z 22007KT 27/13 A2984 RMK A01 T02690129  RH  042%=      5-min Rain = 0
KCR2 160326Z 20009KT 27/13 A2984 RMK A01 T02690130  RH  042%=      5-min Rain = 0
KCR2 160327Z 22006KT 27/13 A2983 RMK A01 T02680130  RH  042%=      5-min Rain = 0
KCR2 160328Z 20007KT 27/13 A2983 RMK A01 T02670130  RH  043%=      5-min Rain = 0
KCR2 160329Z 20008KT 27/13 A2983 RMK A01 T02670129  RH  042%=      5-min Rain = 0
KCR2 160330Z 20006KT 27/13 A2983 RMK A01 T02660129  RH  043%=      5-min Rain = 0
KCR2 160331Z 20007KT 27/13 A2983 RMK A01 T02660129  RH  043%=      5-min Rain = 0
KCR2 160332Z 20010KT 27/13 A2983 RMK A01 T02660129  RH  043%=      5-min Rain = 0
KCR2 160333Z 20009KT 27/13 A2984 RMK A01 T02660129  RH  043%=      5-min Rain = 0
KCR2 160334Z 20009KT 27/13 A2984 RMK A01 T02650128  RH  043%=      5-min Rain = 0
KCR2 160335Z 20010KT 27/13 A2984 RMK A01 T02660128  RH  043%=      5-min Rain = 0
KCR2 160336Z 20010KT 27/13 A2984 RMK A01 T02660128  RH  042%=      5-min Rain = 0
KCR2 160337Z 21008KT 27/13 A2984 RMK A01 T02660128  RH  042%=      5-min Rain = 0
KCR2 160338Z 20007KT 27/13 A2984 RMK A01 T02660128  RH  042%=      5-min Rain = 0
KCR2 160339Z 20008KT 27/13 A2984 RMK A01 T02650128  RH  043%=      5-min Rain = 0
KCR2 160340Z 19010KT 27/13 A2984 RMK A01 T02650128  RH  043%=      5-min Rain = 0
KCR2 160341Z 20009KT 27/13 A2984 RMK A01 T02650128  RH  043%=      5-min Rain = 0
KCR2 160342Z 20011KT 27/13 A2984 RMK A01 T02650128  RH  043%=      5-min Rain = 0
KCR2 160343Z 20008KT 27/13 A2984 RMK A01 T02650128  RH  043%=      5-min Rain = 0
KCR2 160344Z 20010KT 26/13 A2984 RMK A01 T02640128  RH  043%=      5-min Rain = 0
KCR2 160345Z 20011KT 26/13 A2984 RMK A01 T02640129  RH  043%=      5-min Rain = 0
KCR2 160346Z 20012KT 26/13 A2984 RMK A01 T02640128  RH  043%=      5-min Rain = 0
KCR2 160347Z 20010KT 26/13 A2984 RMK A01 T02640128  RH  043%=      5-min Rain = 0
KCR2 160348Z 20008KT 27/13 A2984 RMK A01 T02650129  RH  043%=      5-min Rain = 0
KCR2 160349Z 20009KT 27/13 A2984 RMK A01 T02650129  RH  043%=      5-min Rain = 0
KCR2 160350Z 20009KT 26/13 A2984 RMK A01 T02640129  RH  043%=      5-min Rain = 0
KCR2 160351Z 21007KT 26/13 A2984 RMK A01 T02640128  RH  043%=      5-min Rain = 0
KCR2 160352Z 20010KT 26/13 A2984 RMK A01 T02640128  RH  043%=      5-min Rain = 0
KCR2 160353Z 20009KT 26/13 A2984 RMK A01 T02640128  RH  043%=      5-min Rain = 0
KCR2 160354Z 21010KT 26/13 A2984 RMK A01 T02640128  RH  043%=      5-min Rain = 0
KCR2 160355Z 20009KT 26/13 A2984 RMK A01 T02640128  RH  043%=      5-min Rain = 0
KCR2 160356Z 21010KT 26/13 A2984 RMK A01 T02630127  RH  043%=      5-min Rain = 0
KCR2 160357Z 20010KT 26/13 A2984 RMK A01 T02630127  RH  043%=      5-min Rain = 0
KCR2 160358Z 20011KT 26/13 A2984 RMK A01 T02630127  RH  043%=      5-min Rain = 0
KCR2 160359Z 20012KT 26/13 A2984 RMK A01 T02640127  RH  043%=      5-min Rain = 0
KCR2 160400Z 20011KT 26/13 A2984 RMK A01 T02640127  RH  043%=      5-min Rain = 0
KCR2 160401Z 19012KT 26/13 A2984 RMK A01 T02640127  RH  042%=      5-min Rain = 0
KCR2 160402Z 19013KT 27/13 A2984 RMK A01 T02650127  RH  042%=      5-min Rain = 0
KCR2 160403Z 19014KT 27/13 A2984 RMK A01 T02650127  RH  042%=      5-min Rain = 0
KCR2 160404Z 19012G17KT 27/13 A2984 RMK A01 T02660128  RH  042%=      5-min Rain = 0
KCR2 160405Z 19011KT 27/13 A2984 RMK A01 T02660128  RH  042%=      5-min Rain = 0
KCR2 160406Z 19011KT 27/13 A2984 RMK A01 T02660129  RH  043%=      5-min Rain = 0
KCR2 160407Z 19012KT 27/13 A2984 RMK A01 T02660129  RH  043%=      5-min Rain = 0
KCR2 160408Z 19014KT 27/13 A2984 RMK A01 T02660130  RH  043%=      5-min Rain = 0
KCR2 160409Z 19013KT 27/13 A2984 RMK A01 T02660130  RH  043%=      5-min Rain = 0
KCR2 160410Z 19012KT 27/13 A2984 RMK A01 T02660131  RH  043%=      5-min Rain = 0
KCR2 160411Z 19016KT 27/13 A2984 RMK A01 T02660131  RH  043%=      5-min Rain = 0
KCR2 160412Z 19014KT 27/13 A2984 RMK A01 T02660132  RH  043%=      5-min Rain = 0
KCR2 160413Z 19013KT 27/13 A2984 RMK A01 T02660132  RH  043%=      5-min Rain = 0
KCR2 160414Z 19013KT 27/13 A2984 RMK A01 T02660132  RH  043%=      5-min Rain = 0
KCR2 160415Z 19014KT 27/13 A2984 RMK A01 T02660132  RH  043%=      5-min Rain = 0
KCR2 160416Z 19014KT 27/13 A2984 RMK A01 T02660132  RH  044%=      5-min Rain = 0
KCR2 160417Z 19013KT 27/13 A2984 RMK A01 T02660132  RH  044%=      5-min Rain = 0
KCR2 160418Z 19013KT 27/13 A2984 RMK A01 T02660132  RH  044%=      5-min Rain = 0
KCR2 160419Z 19013G18KT 27/13 A2984 RMK A01 T02660133  RH  044%=      5-min Rain = 0
KCR2 160420Z 19013KT 27/13 A2984 RMK A01 T02660134  RH  044%=      5-min Rain = 0
KCR2 160421Z 19014KT 27/14 A2984 RMK A01 T02660135  RH  044%=      5-min Rain = 0
KCR2 160422Z 19014KT 27/14 A2984 RMK A01 T02660136  RH  045%=      5-min Rain = 0
KCR2 160423Z 19015G20KT 27/14 A2984 RMK A01 T02660137  RH  045%=      5-min Rain = 0
KCR2 160424Z 19015KT 27/14 A2984 RMK A01 T02660139  RH  046%=      5-min Rain = 0
KCR2 160425Z 19015KT 27/14 A2984 RMK A01 T02670140  RH  046%=      5-min Rain = 0
KCR2 160426Z 19016KT 27/14 A2984 RMK A01 T02660142  RH  046%=      5-min Rain = 0
KCR2 160427Z 19016KT 27/15 A2983 RMK A01 T02670145  RH  047%=      5-min Rain = 0
KCR2 160428Z 19014KT 27/15 A2984 RMK A01 T02670146  RH  047%=      5-min Rain = 0
KCR2 160429Z 19013KT 27/15 A2983 RMK A01 T02670147  RH  047%=      5-min Rain = 0
KCR2 160430Z 19012KT 27/15 A2984 RMK A01 T02670147  RH  048%=      5-min Rain = 0
KCR2 160431Z 19016KT 27/15 A2984 RMK A01 T02670148  RH  048%=      5-min Rain = 0
KCR2 160432Z 19017KT 27/15 A2983 RMK A01 T02670149  RH  048%=      5-min Rain = 0
KCR2 160433Z 19014KT 27/15 A2984 RMK A01 T02680150  RH  048%=      5-min Rain = 0
KCR2 160434Z 19016KT 27/15 A2983 RMK A01 T02680150  RH  048%=      5-min Rain = 0
KCR2 160435Z 19015KT 27/15 A2984 RMK A01 T02680150  RH  048%=      5-min Rain = 0
KCR2 160436Z 19016KT 27/15 A2984 RMK A01 T02680150  RH  049%=      5-min Rain = 0
KCR2 160437Z 19016KT 27/15 A2983 RMK A01 T02680151  RH  049%=      5-min Rain = 0
KCR2 160438Z 19015KT 27/15 A2984 RMK A01 T02680151  RH  049%=      5-min Rain = 0
KCR2 160439Z 19015KT 27/15 A2984 RMK A01 T02680151  RH  049%=      5-min Rain = 0
KCR2 160440Z 19014KT 27/15 A2984 RMK A01 T02680151  RH  049%=      5-min Rain = 0
KCR2 160441Z 19013KT 27/15 A2984 RMK A01 T02670151  RH  049%=      5-min Rain = 0
KCR2 160442Z 19014KT 27/15 A2984 RMK A01 T02670151  RH  049%=      5-min Rain = 0
KCR2 160443Z 19015KT 27/15 A2984 RMK A01 T02670151  RH  049%=      5-min Rain = 0
KCR2 160444Z 19015KT 27/15 A2984 RMK A01 T02660151  RH  049%=      5-min Rain = 0
KCR2 160445Z 19014KT 27/15 A2984 RMK A01 T02660151  RH  049%=      5-min Rain = 0
KCR2 160446Z 19016KT 27/15 A2984 RMK A01 T02660152  RH  050%=      5-min Rain = 0
KCR2 160447Z 19016KT 27/15 A2984 RMK A01 T02660152  RH  050%=      5-min Rain = 0
KCR2 160448Z 19013KT 27/15 A2984 RMK A01 T02660152  RH  050%=      5-min Rain = 0
KCR2 160449Z 19015KT 27/15 A2984 RMK A01 T02660152  RH  050%=      5-min Rain = 0
KCR2 160450Z 19014KT 27/15 A2984 RMK A01 T02660153  RH  050%=      5-min Rain = 0
KCR2 160451Z 19013KT 27/15 A2984 RMK A01 T02660153  RH  050%=      5-min Rain = 0
KCR2 160452Z 19012KT 27/15 A2984 RMK A01 T02660153  RH  050%=      5-min Rain = 0
KCR2 160453Z 19013KT 27/15 A2984 RMK A01 T02660153  RH  050%=      5-min Rain = 0
KCR2 160454Z 19014KT 27/15 A2984 RMK A01 T02650154  RH  050%=      5-min Rain = 0
KCR2 160455Z 19014KT 27/16 A2984 RMK A01 T02650155  RH  051%=      5-min Rain = 0
KCR2 160456Z 18017KT 27/16 A2984 RMK A01 T02660155  RH  051%=      5-min Rain = 0
KCR2 160457Z 18014KT 27/16 A2984 RMK A01 T02660157  RH  051%=      5-min Rain = 0
KCR2 160458Z 19013KT 27/16 A2984 RMK A01 T02670156  RH  051%=      5-min Rain = 0
KCR2 160459Z 18014KT 27/16 A2984 RMK A01 T02670157  RH  051%=      5-min Rain = 0

Page generated in 0.1331 seconds.